NOAA Web Site Link Tides and Currents Home Page Transparent placeholder image

PORTS® Data Listing: 8638901 CBBT, Chesapeake Channel, VA

CO-OPS RAW PORTS DATA

************************      PRELIMINARY DATA      ************************** 

     THIS RAW DATA HAS NOT BEEN SUBJECT TO THE NATIONAL OCEAN SERVICE'S        
     QUALITY CONTROL OR QUALITY ASSURANCE PROCEDURES AND DOES NOT MEET         
     THE CRITERIA AND STANDARDS OF OFFICIAL NATIONAL OCEAN SERVICE             
     DATA.  IT IS RELEASED FOR LIMITED PUBLIC USE AS PRELIMINARY DATA TO       
     BE USED ONLY WITH APPROPRIATE CAUTION.                                    

************************      PRELIMINARY DATA      ************************** 


       CD   -   Calendar date
       T    -   Time
       TZ   -   Timezone
       PW   -   Predicted water level (feet above MLLW)
       OW   -   Observed water level (feet above MLLW)
       WS   -   Wind speed (knots)
       WD   -   Wind direction (degrees true)
       WG   -   Wind gust (knots)
       AT   -   Air temperature (degrees farenheit)
       WT   -   Water temperature (degrees farenheit)
       AP   -   Air pressure (millibars)
       SA   -   Salinty (PSU - Practical Salinity Units)
       SG   -   Specific gravity
       RH   -   Relative humidity
       AG   -   Air gap (feet)
       VI   -   Visibility (nautical miles)

       ** NOTE **
       A variable that has its data fields filled with "9"s, indicates that
       data was not collected for that sample period.
       **********

NOTICE OF PROVISIONAL DATUM
These datums and any data referred to said datum are PROVISIONAL and
subject to revision until they have been thoroughly reviewed and received final
approval.  Subsequent review based on field inspections and additional
measurements may result in revisions to the data and datums.  Data users are
cautioned to consider the conditional nature of this information before using
it for critical decisions such as those that concern physical or public safety.
Only after meeting all standards for quality control assurance will the datums
be classified as Accepted Datums.

STATION NAME: CBBT, Chesapeake Channel (8638901)
****************************************************************************************************
    CD       T    TZ    PW     OW    WS   WD   WG    AT    WT    AP    SA    SG     RH    AG   VI
****************************************************************************************************
2018/04/19 04:42 EDT    0.09   0.32   12  225   15  60.8 -99.9 1001.1 -9.9 -9.999 -99.9 -99.99 -9.99
2018/04/19 04:48 EDT    0.05   0.29   13  223   15  60.8 -99.9 1001.1 -9.9 -9.999 -99.9 -99.99 -9.99
2018/04/19 04:54 EDT    0.02   0.26   13  225   16  61.2 -99.9 1001.1 -9.9 -9.999 -99.9 -99.99 -9.99
2018/04/19 05:00 EDT   -0.00   0.27   11  227   13  60.8 -99.9 1001.1 -9.9 -9.999 -99.9 -99.99 -9.99
2018/04/19 05:06 EDT   -0.02   0.22   10  229   13  60.8 -99.9 1001.2 -9.9 -9.999 -99.9 -99.99 -9.99
2018/04/19 05:12 EDT   -0.04   0.22   10  234   12  60.8 -99.9 1001.3 -9.9 -9.999 -99.9 -99.99 -9.99
2018/04/19 05:18 EDT   -0.05   0.24   11  236   14  61.3 -99.9 1001.3 -9.9 -9.999 -99.9 -99.99 -9.99
2018/04/19 05:24 EDT   -0.06   0.17   10  234   13  61.2 -99.9 1001.3 -9.9 -9.999 -99.9 -99.99 -9.99
2018/04/19 05:30 EDT   -0.06   0.23   11  236   13  61.0 -99.9 1001.4 -9.9 -9.999 -99.9 -99.99 -9.99
2018/04/19 05:36 EDT   -0.06   0.21   10  234   13  60.8 -99.9 1001.4 -9.9 -9.999 -99.9 -99.99 -9.99
2018/04/19 05:42 EDT   -0.06   0.23   11  231   13  60.8 -99.9 1001.4 -9.9 -9.999 -99.9 -99.99 -9.99
2018/04/19 05:48 EDT   -0.05   0.24   10  231   14  60.8 -99.9 1001.4 -9.9 -9.999 -99.9 -99.99 -9.99
2018/04/19 05:54 EDT   -0.04   0.26   11  232   13  61.2 -99.9 1001.4 -9.9 -9.999 -99.9 -99.99 -9.99
2018/04/19 06:00 EDT   -0.02   0.28   12  233   15  61.3 -99.9 1001.4 -9.9 -9.999 -99.9 -99.99 -9.99
2018/04/19 06:06 EDT   -0.00   0.32   12  236   14  61.5 -99.9 1001.5 -9.9 -9.999 -99.9 -99.99 -9.99
2018/04/19 06:12 EDT    0.02   0.32   11  238   14  61.5 -99.9 1001.6 -9.9 -9.999 -99.9 -99.99 -9.99
2018/04/19 06:18 EDT    0.05   0.34   12  236   14  61.7 -99.9 1001.7 -9.9 -9.999 -99.9 -99.99 -9.99
2018/04/19 06:24 EDT    0.08   0.39   12  242   15  61.5 -99.9 1001.8 -9.9 -9.999 -99.9 -99.99 -9.99
2018/04/19 06:30 EDT    0.11   0.38   14  244   16  61.5 -99.9 1001.9 -9.9 -9.999 -99.9 -99.99 -9.99
2018/04/19 06:36 EDT    0.15   0.48   15  248   16  61.7 -99.9 1002.1 -9.9 -9.999 -99.9 -99.99 -9.99
2018/04/19 06:42 EDT    0.19   0.50   22  291   26  63.3 -99.9 1002.6 -9.9 -9.999 -99.9 -99.99 -9.99
2018/04/19 06:48 EDT    0.24   0.55   25  337   30  57.9 -99.9 1003.4 -9.9 -9.999 -99.9 -99.99 -9.99
2018/04/19 06:54 EDT    0.28   0.59   20  343   28  56.3 -99.9 1003.7 -9.9 -9.999 -99.9 -99.99 -9.99
2018/04/19 07:00 EDT    0.33   0.64   18  353   20  55.8 -99.9 1003.9 -9.9 -9.999 -99.9 -99.99 -9.99
2018/04/19 07:06 EDT    0.39   0.64   15  344   19  55.8 -99.9 1004.0 -9.9 -9.999 -99.9 -99.99 -9.99
2018/04/19 07:12 EDT    0.44   0.71   13  345   16  55.4 -99.9 1004.1 -9.9 -9.999 -99.9 -99.99 -9.99
2018/04/19 07:18 EDT    0.50   0.79   13  343   15  55.0 -99.9 1004.2 -9.9 -9.999 -99.9 -99.99 -9.99
2018/04/19 07:24 EDT    0.56   0.91   16  345   17  54.5 -99.9 1004.3 -9.9 -9.999 -99.9 -99.99 -9.99
2018/04/19 07:30 EDT    0.62   0.94   14  345   16  54.1 -99.9 1004.6 -9.9 -9.999 -99.9 -99.99 -9.99
2018/04/19 07:36 EDT    0.68   0.94   14   12   17  53.1 -99.9 1004.7 -9.9 -9.999 -99.9 -99.99 -9.99
2018/04/19 07:42 EDT    0.75   0.98   13  350   18  52.7 -99.9 1004.7 -9.9 -9.999 -99.9 -99.99 -9.99
2018/04/19 07:48 EDT    0.81   1.10   17   14   18  52.2 -99.9 1004.8 -9.9 -9.999 -99.9 -99.99 -9.99
2018/04/19 07:54 EDT    0.88   1.15   14    3   18  52.2 -99.9 1004.9 -9.9 -9.999 -99.9 -99.99 -9.99
2018/04/19 08:00 EDT    0.95   1.27   15    6   17  52.0 -99.9 1005.0 -9.9 -9.999 -99.9 -99.99 -9.99
2018/04/19 08:06 EDT    1.02   1.30   14    6   16  51.8 -99.9 1005.2 -9.9 -9.999 -99.9 -99.99 -9.99
2018/04/19 08:12 EDT    1.09   1.38   12    3   15  51.6 -99.9 1005.2 -9.9 -9.999 -99.9 -99.99 -9.99
2018/04/19 08:18 EDT    1.17   1.45   12    7   14  51.6 -99.9 1005.2 -9.9 -9.999 -99.9 -99.99 -9.99
2018/04/19 08:24 EDT    1.24   1.54   14  359   16  51.4 -99.9 1005.5 -9.9 -9.999 -99.9 -99.99 -9.99
2018/04/19 08:30 EDT    1.31   1.61   12  359   16  51.6 -99.9 1005.4 -9.9 -9.999 -99.9 -99.99 -9.99
2018/04/19 08:36 EDT    1.38   1.69   12  356   13  51.6 -99.9 1005.5 -9.9 -9.999 -99.9 -99.99 -9.99
2018/04/19 08:42 EDT    1.46   1.72   10  348   13  51.6 -99.9 1005.6 -9.9 -9.999 -99.9 -99.99 -9.99
2018/04/19 08:48 EDT    1.53   1.78   11  354   12  51.4 -99.9 1005.7 -9.9 -9.999 -99.9 -99.99 -9.99
2018/04/19 08:54 EDT    1.60   1.88   10  344   11  51.4 -99.9 1005.7 -9.9 -9.999 -99.9 -99.99 -9.99
2018/04/19 09:00 EDT    1.67   1.95   11  347   11  51.6 -99.9 1005.9 -9.9 -9.999 -99.9 -99.99 -9.99
2018/04/19 09:06 EDT    1.74   2.08   11  343   12  51.6 -99.9 1006.0 -9.9 -9.999 -99.9 -99.99 -9.99
2018/04/19 09:12 EDT    1.81   2.13   11  342   13  51.6 -99.9 1006.1 -9.9 -9.999 -99.9 -99.99 -9.99
2018/04/19 09:18 EDT    1.88   2.20   11  333   12  51.8 -99.9 1006.1 -9.9 -9.999 -99.9 -99.99 -9.99
2018/04/19 09:24 EDT    1.95   2.26   11  328   13  51.8 -99.9 1006.1 -9.9 -9.999 -99.9 -99.99 -9.99
2018/04/19 09:30 EDT    2.02   2.37   12  332   13  51.8 -99.9 1006.2 -9.9 -9.999 -99.9 -99.99 -9.99
2018/04/19 09:36 EDT    2.08   2.43   12  326   13  51.8 -99.9 1006.3 -9.9 -9.999 -99.9 -99.99 -9.99
2018/04/19 09:42 EDT    2.14   2.48   11  326   13  52.0 -99.9 1006.4 -9.9 -9.999 -99.9 -99.99 -9.99
2018/04/19 09:48 EDT    2.20   2.55   10  323   12  52.0 -99.9 1006.3 -9.9 -9.999 -99.9 -99.99 -9.99
2018/04/19 09:54 EDT    2.26   2.57   10  324   12  52.0 -99.9 1006.3 -9.9 -9.999 -99.9 -99.99 -9.99
2018/04/19 10:00 EDT    2.32   2.64   11  324   12  52.2 -99.9 1006.4 -9.9 -9.999 -99.9 -99.99 -9.99
2018/04/19 10:06 EDT    2.37   2.68    9  312   11  52.2 -99.9 1006.4 -9.9 -9.999 -99.9 -99.99 -9.99
2018/04/19 10:12 EDT    2.42   2.74    9  324   11  52.3 -99.9 1006.4 -9.9 -9.999 -99.9 -99.99 -9.99
2018/04/19 10:18 EDT    2.47   2.79   10  307   11  52.3 -99.9 1006.5 -9.9 -9.999 -99.9 -99.99 -9.99
2018/04/19 10:24 EDT    2.51   2.84   10  323   11  52.5 -99.9 1006.6 -9.9 -9.999 -99.9 -99.99 -9.99
2018/04/19 10:30 EDT    2.55   2.88   11  318   12  52.7 -99.9 1006.8 -9.9 -9.999 -99.9 -99.99 -9.99
2018/04/19 10:36 EDT    2.59   2.95   10  319   12  52.7 -99.9 1006.8 -9.9 -9.999 -99.9 -99.99 -9.99
2018/04/19 10:42 EDT    2.62   2.99    8  323   10  53.1 -99.9 1006.9 -9.9 -9.999 -99.9 -99.99 -9.99
2018/04/19 10:48 EDT    2.65   3.01    7  322   10  53.2 -99.9 1006.7 -9.9 -9.999 -99.9 -99.99 -9.99
2018/04/19 10:54 EDT    2.68   3.02    6  320    7  53.2 -99.9 1006.5 -9.9 -9.999 -99.9 -99.99 -9.99
2018/04/19 11:00 EDT    2.70   3.10    6  320    7  53.1 -99.9 1006.7 -9.9 -9.999 -99.9 -99.99 -9.99
2018/04/19 11:06 EDT    2.72   3.09    5  311    6  53.4 -99.9 1006.7 -9.9 -9.999 -99.9 -99.99 -9.99
2018/04/19 11:12 EDT    2.73   3.11    5  308    6  53.6 -99.9 1006.8 -9.9 -9.999 -99.9 -99.99 -9.99
2018/04/19 11:18 EDT    2.74   3.14    6  310    7  53.6 -99.9 1006.8 -9.9 -9.999 -99.9 -99.99 -9.99
2018/04/19 11:24 EDT    2.74   3.13    5  312    6  53.8 -99.9 1006.8 -9.9 -9.999 -99.9 -99.99 -9.99
2018/04/19 11:30 EDT    2.75   3.11    4  296    5  54.1 -99.9 1006.8 -9.9 -9.999 -99.9 -99.99 -9.99
2018/04/19 11:36 EDT    2.74   3.13    4  297    5  54.3 -99.9 1006.8 -9.9 -9.999 -99.9 -99.99 -9.99
2018/04/19 11:42 EDT    2.74   3.10    4  303    5  54.3 -99.9 1006.8 -9.9 -9.999 -99.9 -99.99 -9.99
2018/04/19 11:48 EDT    2.73   3.09    4  309    5  54.5 -99.9 1006.8 -9.9 -9.999 -99.9 -99.99 -9.99
2018/04/19 11:54 EDT    2.71   3.09    4  299    4  54.7 -99.9 1006.9 -9.9 -9.999 -99.9 -99.99 -9.99
2018/04/19 12:00 EDT    2.69   3.04    4  294    5  54.7 -99.9 1007.0 -9.9 -9.999 -99.9 -99.99 -9.99
2018/04/19 12:06 EDT    2.67   3.00    3  279    4  54.7 -99.9 1007.0 -9.9 -9.999 -99.9 -99.99 -9.99
2018/04/19 12:12 EDT    2.65   2.99    2  273    3  55.0 -99.9 1007.0 -9.9 -9.999 -99.9 -99.99 -9.99
2018/04/19 12:18 EDT    2.62   2.94    1  283    2  55.8 -99.9 1007.1 -9.9 -9.999 -99.9 -99.99 -9.99
2018/04/19 12:24 EDT    2.59   2.92    2  269    2  56.3 -99.9 1007.1 -9.9 -9.999 -99.9 -99.99 -9.99
2018/04/19 12:30 EDT    2.55   2.88    1  293    2  56.3 -99.9 1007.0 -9.9 -9.999 -99.9 -99.99 -9.99
2018/04/19 12:36 EDT    2.52   2.85    0  335    1  56.5 -99.9 1006.8 -9.9 -9.999 -99.9 -99.99 -9.99
2018/04/19 12:42 EDT    2.48   2.83    0   72    1  57.0 -99.9 1006.9 -9.9 -9.999 -99.9 -99.99 -9.99
2018/04/19 12:48 EDT    2.43   2.78    1   69    1  57.2 -99.9 1006.8 -9.9 -9.999 -99.9 -99.99 -9.99
2018/04/19 12:54 EDT    2.39   2.77    2  133    2  58.3 -99.9 1007.0 -9.9 -9.999 -99.9 -99.99 -9.99
2018/04/19 13:00 EDT    2.34   2.68    2  142    4  58.1 -99.9 1007.0 -9.9 -9.999 -99.9 -99.99 -9.99
2018/04/19 13:06 EDT    2.29   2.64    3  179    4  57.6 -99.9 1007.2 -9.9 -9.999 -99.9 -99.99 -9.99
2018/04/19 13:12 EDT    2.24   2.58    4  186    4  57.2 -99.9 1007.2 -9.9 -9.999 -99.9 -99.99 -9.99
2018/04/19 13:18 EDT    2.19   2.50    5  198    5  57.0 -99.9 1007.3 -9.9 -9.999 -99.9 -99.99 -9.99
2018/04/19 13:24 EDT    2.14   2.48    4  197    5  57.2 -99.9 1007.3 -9.9 -9.999 -99.9 -99.99 -9.99
2018/04/19 13:30 EDT    2.08   2.44    3  190    5  57.4 -99.9 1007.4 -9.9 -9.999 -99.9 -99.99 -9.99
2018/04/19 13:36 EDT    2.02   2.38    2  198    3  57.9 -99.9 1007.6 -9.9 -9.999 -99.9 -99.99 -9.99
2018/04/19 13:42 EDT    1.96   2.37    2  168    2  58.3 -99.9 1007.5 -9.9 -9.999 -99.9 -99.99 -9.99
2018/04/19 13:48 EDT    1.90   2.31    1  121    3  59.0 -99.9 1007.5 -9.9 -9.999 -99.9 -99.99 -9.99
2018/04/19 13:54 EDT    1.84   2.21    2  111    3  59.4 -99.9 1007.3 -9.9 -9.999 -99.9 -99.99 -9.99
2018/04/19 14:00 EDT    1.77   2.12    3  110    4  59.0 -99.9 1007.3 -9.9 -9.999 -99.9 -99.99 -9.99
2018/04/19 14:06 EDT    1.71   2.07    3  112    4  59.0 -99.9 1007.5 -9.9 -9.999 -99.9 -99.99 -9.99
2018/04/19 14:12 EDT    1.64   2.02    2  139    4  59.2 -99.9 1007.6 -9.9 -9.999 -99.9 -99.99 -9.99
2018/04/19 14:18 EDT    1.57   1.96    1  115    4  59.7 -99.9 1007.7 -9.9 -9.999 -99.9 -99.99 -9.99
2018/04/19 14:24 EDT    1.50   1.91    2   91    4  58.8 -99.9 1007.6 -9.9 -9.999 -99.9 -99.99 -9.99
2018/04/19 14:30 EDT    1.43   1.85    3  165    4  57.6 -99.9 1007.6 -9.9 -9.999 -99.9 -99.99 -9.99
2018/04/19 14:36 EDT    1.36   1.76    4  177    4  56.8 -99.9 1007.7 -9.9 -9.999 -99.9 -99.99 -9.99
2018/04/19 14:42 EDT    1.29   1.66    3  114    4  56.7 -99.9 1007.8 -9.9 -9.999 -99.9 -99.99 -9.99
2018/04/19 14:48 EDT    1.22   1.60    2  124    4  56.5 -99.9 1007.8 -9.9 -9.999 -99.9 -99.99 -9.99
2018/04/19 14:54 EDT    1.15   1.53    2   96    4  56.7 -99.9 1007.8 -9.9 -9.999 -99.9 -99.99 -9.99
2018/04/19 15:00 EDT    1.08   1.48    2   77    2  57.0 -99.9 1007.7 -9.9 -9.999 -99.9 -99.99 -9.99
2018/04/19 15:06 EDT    1.01   1.42    2   62    3  57.9 -99.9 1007.8 -9.9 -9.999 -99.9 -99.99 -9.99
2018/04/19 15:12 EDT    0.94   1.31    3   28    3  57.9 -99.9 1007.9 -9.9 -9.999 -99.9 -99.99 -9.99
2018/04/19 15:18 EDT    0.87   1.17   10   34   17  55.9 -99.9 1008.1 -9.9 -9.999 -99.9 -99.99 -9.99
2018/04/19 15:24 EDT    0.80   1.13    8   31   11  55.6 -99.9 1008.4 -9.9 -9.999 -99.9 -99.99 -9.99
2018/04/19 15:30 EDT    0.73   1.01   29   18   37  53.6 -99.9 1008.5 -9.9 -9.999 -99.9 -99.99 -9.99
2018/04/19 15:36 EDT    0.66   1.01   27   10   33  52.7 -99.9 1008.7 -9.9 -9.999 -99.9 -99.99 -9.99
2018/04/19 15:42 EDT    0.60   1.04   28   16   31  52.2 -99.9 1008.7 -9.9 -9.999 -99.9 -99.99 -9.99
2018/04/19 15:48 EDT    0.53   0.97   27   21   31  51.6 -99.9 1008.8 -9.9 -9.999 -99.9 -99.99 -9.99
2018/04/19 15:54 EDT    0.47   0.87   27   12   31  51.6 -99.9 1009.1 -9.9 -9.999 -99.9 -99.99 -9.99
2018/04/19 16:00 EDT    0.41   0.91   26   12   31  51.6 -99.9 1009.3 -9.9 -9.999 -99.9 -99.99 -9.99
2018/04/19 16:06 EDT    0.36   0.89   24   14   29  51.8 -99.9 1009.6 -9.9 -9.999 -99.9 -99.99 -9.99
2018/04/19 16:12 EDT    0.30   0.89   21   16   26  51.8 -99.9 1009.9 -9.9 -9.999 -99.9 -99.99 -9.99
2018/04/19 16:18 EDT    0.25   0.88   22   19   25  52.0 -99.9 1009.9 -9.9 -9.999 -99.9 -99.99 -9.99
2018/04/19 16:24 EDT    0.21   0.97   21   21   24  52.0 -99.9 1010.0 -9.9 -9.999 -99.9 -99.99 -9.99
2018/04/19 16:30 EDT    0.16   0.91   21   24   23  52.2 -99.9 1010.0 -9.9 -9.999 -99.9 -99.99 -9.99
2018/04/19 16:36 EDT    0.12   0.83   19   24   22  52.3 -99.9 1010.1 -9.9 -9.999 -99.9 -99.99 -9.99
2018/04/19 16:42 EDT    0.09   0.78   18   22   22  52.5 -99.9 1010.2 -9.9 -9.999 -99.9 -99.99 -9.99
2018/04/19 16:48 EDT    0.05   0.74   18   26   20  52.5 -99.9 1010.4 -9.9 -9.999 -99.9 -99.99 -9.99
2018/04/19 16:54 EDT    0.02   0.66   17   21   21  52.7 -99.9 1010.5 -9.9 -9.999 -99.9 -99.99 -9.99
2018/04/19 17:00 EDT   -0.00   0.67   18   23   20  52.9 -99.9 1010.7 -9.9 -9.999 -99.9 -99.99 -9.99
2018/04/19 17:06 EDT   -0.02   0.65   17   25   19  53.1 -99.9 1010.7 -9.9 -9.999 -99.9 -99.99 -9.99
2018/04/19 17:12 EDT   -0.04   0.60   17   22   20  53.4 -99.9 1010.9 -9.9 -9.999 -99.9 -99.99 -9.99
2018/04/19 17:18 EDT   -0.06   0.59   15   25   19  53.6 -99.9 1010.9 -9.9 -9.999 -99.9 -99.99 -9.99
2018/04/19 17:24 EDT   -0.06   0.59   17   24   19  53.8 -99.9 1011.0 -9.9 -9.999 -99.9 -99.99 -9.99
2018/04/19 17:30 EDT   -0.07   0.55   18   30   20  54.0 -99.9 1011.1 -9.9 -9.999 -99.9 -99.99 -9.99
2018/04/19 17:36 EDT   -0.07   0.56   16   34   18  54.3 -99.9 1011.3 -9.9 -9.999 -99.9 -99.99 -9.99
2018/04/19 17:42 EDT   -0.07   0.56   17   31   20  54.7 -99.9 1011.5 -9.9 -9.999 -99.9 -99.99 -9.99
2018/04/19 17:48 EDT   -0.06   0.64   16   28   18  54.7 -99.9 1011.5 -9.9 -9.999 -99.9 -99.99 -9.99
2018/04/19 17:54 EDT   -0.05   0.55   16   25   19  54.7 -99.9 1011.7 -9.9 -9.999 -99.9 -99.99 -9.99
2018/04/19 18:00 EDT   -0.04   0.58   16   23   19  54.9 -99.9 1011.8 -9.9 -9.999 -99.9 -99.99 -9.99
2018/04/19 18:06 EDT   -0.02   0.56   12   20   16  54.9 -99.9 1011.9 -9.9 -9.999 -99.9 -99.99 -9.99
2018/04/19 18:12 EDT    0.01   0.58   13   21   14  55.0 -99.9 1011.9 -9.9 -9.999 -99.9 -99.99 -9.99
2018/04/19 18:18 EDT    0.03   0.64   15   21   17  55.6 -99.9 1012.0 -9.9 -9.999 -99.9 -99.99 -9.99
2018/04/19 18:24 EDT    0.06   0.62   14    9   18  56.1 -99.9 1012.0 -9.9 -9.999 -99.9 -99.99 -9.99
2018/04/19 18:30 EDT    0.10   0.68   13  353   16  57.2 -99.9 1012.2 -9.9 -9.999 -99.9 -99.99 -9.99
2018/04/19 18:36 EDT    0.14   0.72   16  340   18  57.4 -99.9 1012.2 -9.9 -9.999 -99.9 -99.99 -9.99
2018/04/19 18:42 EDT    0.18   0.73   23  334   25  57.7 -99.9 1012.2 -9.9 -9.999 -99.9 -99.99 -9.99
2018/04/19 18:48 EDT    0.22   0.80   23  338   25  57.7 -99.9 1012.3 -9.9 -9.999 -99.9 -99.99 -9.99
2018/04/19 18:54 EDT    0.27   0.84   21  335   24  57.6 -99.9 1012.6 -9.9 -9.999 -99.9 -99.99 -9.99
2018/04/19 19:00 EDT    0.32   0.94   20  330   22  57.4 -99.9 1012.7 -9.9 -9.999 -99.9 -99.99 -9.99
2018/04/19 19:06 EDT    0.37   1.06   20  327   23  57.4 -99.9 1012.9 -9.9 -9.999 -99.9 -99.99 -9.99
2018/04/19 19:12 EDT    0.43   1.13   22  323   25  57.4 -99.9 1012.9 -9.9 -9.999 -99.9 -99.99 -9.99
2018/04/19 19:18 EDT    0.49   1.14   23  321   26  57.6 -99.9 1013.0 -9.9 -9.999 -99.9 -99.99 -9.99
2018/04/19 19:24 EDT    0.55   1.30   20  336   26  56.8 -99.9 1013.4 -9.9 -9.999 -99.9 -99.99 -9.99
2018/04/19 19:30 EDT    0.61   1.42   20  337   24  55.9 -99.9 1013.5 -9.9 -9.999 -99.9 -99.99 -9.99
2018/04/19 19:36 EDT    0.68   1.49   20  337   24  55.9 -99.9 1013.7 -9.9 -9.999 -99.9 -99.99 -9.99
2018/04/19 19:42 EDT    0.75   1.47   21  348   23  55.6 -99.9 1013.9 -9.9 -9.999 -99.9 -99.99 -9.99
2018/04/19 19:48 EDT    0.82   1.61   18  347   23  55.2 -99.9 1014.3 -9.9 -9.999 -99.9 -99.99 -9.99
2018/04/19 19:54 EDT    0.89   1.83   16  344   19  54.9 -99.9 1014.4 -9.9 -9.999 -99.9 -99.99 -9.99
2018/04/19 20:00 EDT    0.97   1.84   23  349   25  55.2 -99.9 1014.4 -9.9 -9.999 -99.9 -99.99 -9.99
2018/04/19 20:06 EDT    1.05   2.09   23  355   26  54.9 -99.9 1014.6 -9.9 -9.999 -99.9 -99.99 -9.99
2018/04/19 20:12 EDT    1.12   2.18   23  349   26  54.9 -99.9 1014.9 -9.9 -9.999 -99.9 -99.99 -9.99
2018/04/19 20:18 EDT    1.20   2.28   23  357   27  54.7 -99.9 1015.0 -9.9 -9.999 -99.9 -99.99 -9.99
2018/04/19 20:24 EDT    1.28   2.35   23  351   26  54.5 -99.9 1015.3 -9.9 -9.999 -99.9 -99.99 -9.99
2018/04/19 20:30 EDT    1.36   2.44   21  357   25  54.3 -99.9 1015.6 -9.9 -9.999 -99.9 -99.99 -9.99
2018/04/19 20:36 EDT    1.45   2.62   24  352   28  54.5 -99.9 1015.7 -9.9 -9.999 -99.9 -99.99 -9.99
2018/04/19 20:42 EDT    1.53   2.68   24  354   29  54.1 -99.9 1016.0 -9.9 -9.999 -99.9 -99.99 -9.99
2018/04/19 20:48 EDT    1.61   2.78   26    4   31  52.5 -99.9 1016.3 -9.9 -9.999 -99.9 -99.99 -9.99
2018/04/19 20:54 EDT    1.69   2.87   30    3   36  52.0 -99.9 1016.2 -9.9 -9.999 -99.9 -99.99 -9.99
2018/04/19 21:00 EDT    1.78   3.06   30    4   36  51.8 -99.9 1016.5 -9.9 -9.999 -99.9 -99.99 -9.99
2018/04/19 21:06 EDT    1.86   3.05   30    4   34  51.6 -99.9 1016.9 -9.9 -9.999 -99.9 -99.99 -9.99
2018/04/19 21:12 EDT    1.94   3.04   30  358   33  51.6 -99.9 1017.1 -9.9 -9.999 -99.9 -99.99 -9.99
2018/04/19 21:18 EDT    2.02   3.10   29  359   36  51.3 -99.9 1017.3 -9.9 -9.999 -99.9 -99.99 -9.99
2018/04/19 21:24 EDT    2.10   3.37   29  354   34  51.1 -99.9 1017.5 -9.9 -9.999 -99.9 -99.99 -9.99
2018/04/19 21:30 EDT    2.18   3.49   28  354   33  50.9 -99.9 1017.8 -9.9 -9.999 -99.9 -99.99 -9.99
2018/04/19 21:36 EDT    2.26   3.41   30  344   34  50.5 -99.9 1017.9 -9.9 -9.999 -99.9 -99.99 -9.99
2018/04/19 21:42 EDT    2.34   3.74   26  348   33  50.4 -99.9 1018.3 -9.9 -9.999 -99.9 -99.99 -9.99
2018/04/19 21:48 EDT    2.42   3.69   27    1   32  49.8 -99.9 1018.5 -9.9 -9.999 -99.9 -99.99 -9.99
2018/04/19 21:54 EDT    2.49   3.82   29  359   34  49.6 -99.9 1018.5 -9.9 -9.999 -99.9 -99.99 -9.99
2018/04/19 22:00 EDT    2.56   3.92   27  355   33  49.5 -99.9 1018.6 -9.9 -9.999 -99.9 -99.99 -9.99
2018/04/19 22:06 EDT    2.64   3.91   28  357   33  49.3 -99.9 1018.7 -9.9 -9.999 -99.9 -99.99 -9.99
2018/04/19 22:12 EDT    2.70   3.92   25  353   33  49.1 -99.9 1018.8 -9.9 -9.999 -99.9 -99.99 -9.99
2018/04/19 22:18 EDT    2.77   4.15   28  350   33  48.9 -99.9 1018.8 -9.9 -9.999 -99.9 -99.99 -9.99
2018/04/19 22:24 EDT    2.83   4.14   28  343   34  48.9 -99.9 1018.9 -9.9 -9.999 -99.9 -99.99 -9.99
2018/04/19 22:30 EDT    2.89   4.29   29  347   33  48.7 -99.9 1019.0 -9.9 -9.999 -99.9 -99.99 -9.99
2018/04/19 22:36 EDT    2.95   4.29   30  349   36  48.6 -99.9 1018.9 -9.9 -9.999 -99.9 -99.99 -9.99
2018/04/19 22:42 EDT    3.00   4.29   34  350   37  48.4 -99.9 1018.8 -9.9 -9.999 -99.9 -99.99 -9.99
2018/04/19 22:48 EDT    3.05   4.39   30  344   38  48.4 -99.9 1019.0 -9.9 -9.999 -99.9 -99.99 -9.99
2018/04/19 22:54 EDT    3.10   4.32   31  348   40  48.4 -99.9 1019.1 -9.9 -9.999 -99.9 -99.99 -9.99
2018/04/19 23:00 EDT    3.14   4.38   30  342   37  48.2 -99.9 1019.1 -9.9 -9.999 -99.9 -99.99 -9.99
2018/04/19 23:06 EDT    3.18   4.49   32  347   38  48.2 -99.9 1019.0 -9.9 -9.999 -99.9 -99.99 -9.99
2018/04/19 23:12 EDT    3.21   4.42   32  352   37  48.2 -99.9 1019.1 -9.9 -9.999 -99.9 -99.99 -9.99
2018/04/19 23:18 EDT    3.24   4.34   31  345   38  48.2 -99.9 1019.1 -9.9 -9.999 -99.9 -99.99 -9.99
2018/04/19 23:24 EDT    3.27   4.42   33  345   37  48.2 -99.9 1019.3 -9.9 -9.999 -99.9 -99.99 -9.99
2018/04/19 23:30 EDT    3.29   4.52   28  345   34  48.4 -99.9 1019.6 -9.9 -9.999 -99.9 -99.99 -9.99
2018/04/19 23:36 EDT    3.30   4.29   32  345   37  48.2 -99.9 1019.7 -9.9 -9.999 -99.9 -99.99 -9.99
2018/04/19 23:42 EDT    3.32   4.53   28  337   37  48.2 -99.9 1019.9 -9.9 -9.999 -99.9 -99.99 -9.99
2018/04/19 23:48 EDT    3.32   4.12   28  339   35  47.8 -99.9 1019.9 -9.9 -9.999 -99.9 -99.99 -9.99
2018/04/19 23:54 EDT    3.33   4.12   27  338   34  48.0 -99.9 1019.9 -9.9 -9.999 -99.9 -99.99 -9.99
2018/04/20 00:00 EDT    3.33   4.20   27  340   32  47.8 -99.9 1020.0 -9.9 -9.999 -99.9 -99.99 -9.99
2018/04/20 00:06 EDT    3.32   3.87   28  348   33  47.8 -99.9 1020.2 -9.9 -9.999 -99.9 -99.99 -9.99
2018/04/20 00:12 EDT    3.31   3.88   24  342   30  48.0 -99.9 1020.2 -9.9 -9.999 -99.9 -99.99 -9.99
2018/04/20 00:18 EDT    3.30   3.97   29  339   33  47.7 -99.9 1020.2 -9.9 -9.999 -99.9 -99.99 -9.99
2018/04/20 00:24 EDT    3.28   3.72   27  339   34  47.7 -99.9 1020.3 -9.9 -9.999 -99.9 -99.99 -9.99
2018/04/20 00:30 EDT    3.26   3.68   24  339   32  47.8 -99.9 1020.5 -9.9 -9.999 -99.9 -99.99 -9.99
2018/04/20 00:36 EDT    3.24   3.64   27  338   30  47.7 -99.9 1020.3 -9.9 -9.999 -99.9 -99.99 -9.99
2018/04/20 00:42 EDT    3.21   3.67   25  352   34  47.7 -99.9 1020.4 -9.9 -9.999 -99.9 -99.99 -9.99
2018/04/20 00:48 EDT    3.18   3.59   26  342   30  47.5 -99.9 1020.4 -9.9 -9.999 -99.9 -99.99 -9.99
2018/04/20 00:54 EDT    3.15   3.52   27  336   31  47.5 -99.9 1020.4 -9.9 -9.999 -99.9 -99.99 -9.99
2018/04/20 01:00 EDT    3.11   3.61   26  347   31  47.7 -99.9 1020.4 -9.9 -9.999 -99.9 -99.99 -9.99
2018/04/20 01:06 EDT    3.07   3.52   23  342   29  47.5 -99.9 1020.6 -9.9 -9.999 -99.9 -99.99 -9.99
2018/04/20 01:12 EDT    3.03   3.52   22  352   27  47.5 -99.9 1020.7 -9.9 -9.999 -99.9 -99.99 -9.99
2018/04/20 01:18 EDT    2.98   3.39   24  347   30  47.5 -99.9 1020.8 -9.9 -9.999 -99.9 -99.99 -9.99
2018/04/20 01:24 EDT    2.93   3.30   23  340   27  47.5 -99.9 1020.9 -9.9 -9.999 -99.9 -99.99 -9.99
2018/04/20 01:30 EDT    2.88   3.23   23  345   27  47.5 -99.9 1020.9 -9.9 -9.999 -99.9 -99.99 -9.99
2018/04/20 01:36 EDT    2.83   3.41   21  344   27  47.5 -99.9 1020.9 -9.9 -9.999 -99.9 -99.99 -9.99
2018/04/20 01:42 EDT    2.77   3.22   22  345   25  47.3 -99.9 1020.9 -9.9 -9.999 -99.9 -99.99 -9.99
2018/04/20 01:48 EDT    2.71   3.33   22  350   25  47.5 -99.9 1020.9 -9.9 -9.999 -99.9 -99.99 -9.99
2018/04/20 01:54 EDT    2.65   3.45   20  348   25  47.5 -99.9 1020.9 -9.9 -9.999 -99.9 -99.99 -9.99
2018/04/20 02:00 EDT    2.59   3.31   20  345   23  47.3 -99.9 1020.9 -9.9 -9.999 -99.9 -99.99 -9.99
2018/04/20 02:06 EDT    2.53   3.04   19  348   24  47.5 -99.9 1020.8 -9.9 -9.999 -99.9 -99.99 -9.99
2018/04/20 02:12 EDT    2.46   3.11   20  344   23  47.3 -99.9 1020.8 -9.9 -9.999 -99.9 -99.99 -9.99
2018/04/20 02:18 EDT    2.40   2.84   17  345   23  47.7 -99.9 1020.9 -9.9 -9.999 -99.9 -99.99 -9.99
2018/04/20 02:24 EDT    2.33   2.84   19  339   22  47.5 -99.9 1020.8 -9.9 -9.999 -99.9 -99.99 -9.99
2018/04/20 02:30 EDT    2.26   2.67   22  345   25  47.3 -99.9 1020.9 -9.9 -9.999 -99.9 -99.99 -9.99
2018/04/20 02:36 EDT    2.18   2.74   19  339   24  47.5 -99.9 1020.8 -9.9 -9.999 -99.9 -99.99 -9.99
2018/04/20 02:42 EDT    2.11   2.58   18  342   23  47.3 -99.9 1020.9 -9.9 -9.999 -99.9 -99.99 -9.99
2018/04/20 02:48 EDT    2.04   2.70   20  332   23  47.3 -99.9 1020.9 -9.9 -9.999 -99.9 -99.99 -9.99
2018/04/20 02:54 EDT    1.96   2.47   19  339   22  47.3 -99.9 1020.9 -9.9 -9.999 -99.9 -99.99 -9.99
2018/04/20 03:00 EDT    1.88   2.29   19  334   23  47.1 -99.9 1020.9 -9.9 -9.999 -99.9 -99.99 -9.99
2018/04/20 03:06 EDT    1.80   2.34   18  343   20  47.3 -99.9 1020.9 -9.9 -9.999 -99.9 -99.99 -9.99
2018/04/20 03:12 EDT    1.72   2.18   19  348   22  47.1 -99.9 1020.9 -9.9 -9.999 -99.9 -99.99 -9.99
2018/04/20 03:18 EDT    1.64   2.02   20  344   22  47.1 -99.9 1020.8 -9.9 -9.999 -99.9 -99.99 -9.99
2018/04/20 03:24 EDT    1.56   1.99   18  338   21  47.1 -99.9 1020.8 -9.9 -9.999 -99.9 -99.99 -9.99
2018/04/20 03:30 EDT    1.48   1.86   18  341   22  47.3 -99.9 1020.9 -9.9 -9.999 -99.9 -99.99 -9.99
2018/04/20 03:36 EDT    1.40   1.82   17  348   25  47.3 -99.9 1020.9 -9.9 -9.999 -99.9 -99.99 -9.99
2018/04/20 03:42 EDT    1.32   1.81   19  345   22  47.3 -99.9 1020.9 -9.9 -9.999 -99.9 -99.99 -9.99
2018/04/20 03:48 EDT    1.24   1.74   21  339   25  47.3 -99.9 1020.9 -9.9 -9.999 -99.9 -99.99 -9.99
2018/04/20 03:54 EDT    1.17   1.60   21  334   26  47.3 -99.9 1021.0 -9.9 -9.999 -99.9 -99.99 -9.99
2018/04/20 04:00 EDT    1.09   1.52   21  341   24  47.3 -99.9 1021.1 -9.9 -9.999 -99.9 -99.99 -9.99
2018/04/20 04:06 EDT    1.01   1.40   18  340   25  47.5 -99.9 1021.2 -9.9 -9.999 -99.9 -99.99 -9.99
2018/04/20 04:12 EDT    0.94   1.33   20  329   23  47.3 -99.9 1021.2 -9.9 -9.999 -99.9 -99.99 -9.99
2018/04/20 04:18 EDT    0.86   1.28   20  328   23  47.3 -99.9 1021.3 -9.9 -9.999 -99.9 -99.99 -9.99
2018/04/20 04:24 EDT    0.79   1.27   20  321   23  47.1 -99.9 1021.4 -9.9 -9.999 -99.9 -99.99 -9.99
2018/04/20 04:30 EDT    0.72   1.11   20  322   24  46.8 -99.9 1021.5 -9.9 -9.999 -99.9 -99.99 -9.99
2018/04/20 04:36 EDT    0.66   1.08   18  328   22  46.8 -99.9 1021.5 -9.9 -9.999 -99.9 -99.99 -9.99
2018/04/20 04:42 EDT    0.59   1.06   19  331   21  46.9 -99.9 1021.5 -9.9 -9.999 -99.9 -99.99 -9.99
2018/04/20 04:48 EDT    0.53   0.93   21  335   23  46.9 -99.9 1021.6 -9.9 -9.999 -99.9 -99.99 -9.99
2018/04/20 04:54 EDT    0.47   0.94   23  327   27  46.8 -99.9 1021.5 -9.9 -9.999 -99.9 -99.99 -9.99
2018/04/20 05:00 EDT    0.42   0.88   19  336   26  47.1 -99.9 1021.6 -9.9 -9.999 -99.9 -99.99 -9.99
2018/04/20 05:06 EDT    0.37   0.78   21  331   26  46.9 -99.9 1021.6 -9.9 -9.999 -99.9 -99.99 -9.99
2018/04/20 05:12 EDT    0.32   0.79   21  335   27  46.9 -99.9 1021.7 -9.9 -9.999 -99.9 -99.99 -9.99
2018/04/20 05:18 EDT    0.27   0.73   24  337   28  46.8 -99.9 1021.6 -9.9 -9.999 -99.9 -99.99 -9.99
2018/04/20 05:24 EDT    0.23   0.67   24  329   27  46.6 -99.9 1021.7 -9.9 -9.999 -99.9 -99.99 -9.99
2018/04/20 05:30 EDT    0.20   0.68   23  332   26  46.6 -99.9 1021.7 -9.9 -9.999 -99.9 -99.99 -9.99
2018/04/20 05:36 EDT    0.16   0.61   21  333   26  46.6 -99.9 1021.9 -9.9 -9.999 -99.9 -99.99 -9.99
2018/04/20 05:42 EDT    0.13   0.64   21  330   30  46.6 -99.9 1022.0 -9.9 -9.999 -99.9 -99.99 -9.99
2018/04/20 05:48 EDT    0.11   0.61   20  330   26  46.4 -99.9 1022.2 -9.9 -9.999 -99.9 -99.99 -9.99
2018/04/20 05:54 EDT    0.09   0.58   20  335   25  46.2 -99.9 1022.3 -9.9 -9.999 -99.9 -99.99 -9.99
2018/04/20 06:00 EDT    0.07   0.63   23  337   27  46.2 -99.9 1022.2 -9.9 -9.999 -99.9 -99.99 -9.99
2018/04/20 06:06 EDT    0.05   0.58   24  335   28  46.0 -99.9 1022.3 -9.9 -9.999 -99.9 -99.99 -9.99
2018/04/20 06:12 EDT    0.04   0.53   24  340   27  46.2 -99.9 1022.3 -9.9 -9.999 -99.9 -99.99 -9.99
2018/04/20 06:18 EDT    0.04   0.56   23  337   30  46.0 -99.9 1022.6 -9.9 -9.999 -99.9 -99.99 -9.99
2018/04/20 06:24 EDT    0.03 -99.99 -999 -999 -999 -99.9 -99.9 -999.9 -9.9 -9.999 -99.9 -99.99 -9.99
2018/04/20 06:30 EDT    0.03 -99.99 -999 -999 -999 -99.9 -99.9 -999.9 -9.9 -9.999 -99.9 -99.99 -9.99
2018/04/20 06:36 EDT    0.04 -99.99 -999 -999 -999 -99.9 -99.9 -999.9 -9.9 -9.999 -99.9 -99.99 -9.99
2018/04/20 06:42 EDT    0.05 -99.99 -999 -999 -999 -99.9 -99.9 -999.9 -9.9 -9.999 -99.9 -99.99 -9.99
2018/04/20 06:48 EDT    0.06 -99.99 -999 -999 -999 -99.9 -99.9 -999.9 -9.9 -9.999 -99.9 -99.99 -9.99
2018/04/20 06:54 EDT    0.07 -99.99 -999 -999 -999 -99.9 -99.9 -999.9 -9.9 -9.999 -99.9 -99.99 -9.99
2018/04/20 07:00 EDT    0.09 -99.99 -999 -999 -999 -99.9 -99.9 -999.9 -9.9 -9.999 -99.9 -99.99 -9.99
2018/04/20 07:06 EDT    0.12 -99.99 -999 -999 -999 -99.9 -99.9 -999.9 -9.9 -9.999 -99.9 -99.99 -9.99
2018/04/20 07:12 EDT    0.14 -99.99 -999 -999 -999 -99.9 -99.9 -999.9 -9.9 -9.999 -99.9 -99.99 -9.99
2018/04/20 07:18 EDT    0.17   0.54   20  357   24  45.1 -99.9 1023.4 -9.9 -9.999 -99.9 -99.99 -9.99
2018/04/20 07:24 EDT    0.20   0.61   20  348   24  44.8 -99.9 1023.6 -9.9 -9.999 -99.9 -99.99 -9.99
2018/04/20 07:30 EDT    0.24   0.73   20  343   23  44.6 -99.9 1023.7 -9.9 -9.999 -99.9 -99.99 -9.99
2018/04/20 07:36 EDT    0.27   0.65   22  347   25  44.2 -99.9 1023.7 -9.9 -9.999 -99.9 -99.99 -9.99
2018/04/20 07:42 EDT    0.31   0.71   20  342   24  44.2 -99.9 1023.8 -9.9 -9.999 -99.9 -99.99 -9.99
2018/04/20 07:48 EDT    0.36   0.78   19  340   26  44.1 -99.9 1023.9 -9.9 -9.999 -99.9 -99.99 -9.99
2018/04/20 07:54 EDT    0.40   0.78   20  342   24  44.1 -99.9 1023.9 -9.9 -9.999 -99.9 -99.99 -9.99
2018/04/20 08:00 EDT    0.45   0.86   23  333   26  43.9 -99.9 1023.9 -9.9 -9.999 -99.9 -99.99 -9.99
2018/04/20 08:06 EDT    0.50   0.98   20  341   24  43.9 -99.9 1024.1 -9.9 -9.999 -99.9 -99.99 -9.99
2018/04/20 08:12 EDT    0.56   0.94   21  338   25  43.7 -99.9 1024.2 -9.9 -9.999 -99.9 -99.99 -9.99
2018/04/20 08:18 EDT    0.61   1.15   21  346   25  43.7 -99.9 1024.3 -9.9 -9.999 -99.9 -99.99 -9.99
2018/04/20 08:24 EDT    0.67   1.18   20  345   22  43.7 -99.9 1024.3 -9.9 -9.999 -99.9 -99.99 -9.99
2018/04/20 08:30 EDT    0.73   1.22   18  340   23  43.5 -99.9 1024.5 -9.9 -9.999 -99.9 -99.99 -9.99
2018/04/20 08:36 EDT    0.79   1.26   18  337   24  43.5 -99.9 1024.4 -9.9 -9.999 -99.9 -99.99 -9.99
2018/04/20 08:42 EDT    0.85   1.32   17  335   21  43.5 -99.9 1024.4 -9.9 -9.999 -99.9 -99.99 -9.99
2018/04/20 08:48 EDT    0.92   1.37   16  340   20  43.5 -99.9 1024.4 -9.9 -9.999 -99.9 -99.99 -9.99
2018/04/20 08:54 EDT    0.98   1.45   18  348   20  43.7 -99.9 1024.4 -9.9 -9.999 -99.9 -99.99 -9.99
2018/04/20 09:00 EDT    1.05   1.48   17  342   21  43.5 -99.9 1024.5 -9.9 -9.999 -99.9 -99.99 -9.99
2018/04/20 09:06 EDT    1.12   1.55   16  346   20  43.5 -99.9 1024.5 -9.9 -9.999 -99.9 -99.99 -9.99
2018/04/20 09:12 EDT    1.19   1.59   15  329   17  43.7 -99.9 1024.6 -9.9 -9.999 -99.9 -99.99 -9.99
2018/04/20 09:18 EDT    1.25   1.69   18  334   20  43.9 -99.9 1024.5 -9.9 -9.999 -99.9 -99.99 -9.99
2018/04/20 09:24 EDT    1.32   1.75   16  344   19  44.2 -99.9 1024.5 -9.9 -9.999 -99.9 -99.99 -9.99
2018/04/20 09:30 EDT    1.39   1.81   14  335   17  44.2 -99.9 1024.8 -9.9 -9.999 -99.9 -99.99 -9.99
2018/04/20 09:36 EDT    1.46   1.90   16  333   20  44.2 -99.9 1024.8 -9.9 -9.999 -99.9 -99.99 -9.99
2018/04/20 09:42 EDT    1.53   1.94   16  329   19  44.2 -99.9 1024.8 -9.9 -9.999 -99.9 -99.99 -9.99
2018/04/20 09:48 EDT    1.60   2.08   15  346   19  44.6 -99.9 1025.0 -9.9 -9.999 -99.9 -99.99 -9.99
2018/04/20 09:54 EDT    1.67   2.14   16  334   20  44.4 -99.9 1025.0 -9.9 -9.999 -99.9 -99.99 -9.99
2018/04/20 10:00 EDT    1.74   2.24   16  334   19  44.6 -99.9 1025.0 -9.9 -9.999 -99.9 -99.99 -9.99
2018/04/20 10:06 EDT    1.80   2.33   14  346   19  44.4 -99.9 1025.2 -9.9 -9.999 -99.9 -99.99 -9.99
2018/04/20 10:12 EDT    1.87   2.29   13  339   19  44.8 -99.9 1025.1 -9.9 -9.999 -99.9 -99.99 -9.99
2018/04/20 10:18 EDT    1.93   2.33   14  342   19  44.8 -99.9 1025.2 -9.9 -9.999 -99.9 -99.99 -9.99
2018/04/20 10:24 EDT    2.00   2.46   15  352   18  44.8 -99.9 1025.3 -9.9 -9.999 -99.9 -99.99 -9.99
2018/04/20 10:30 EDT    2.06   2.56   16  336   21  45.0 -99.9 1025.2 -9.9 -9.999 -99.9 -99.99 -9.99
2018/04/20 10:36 EDT    2.12   2.71   17  326   20  45.0 -99.9 1025.3 -9.9 -9.999 -99.9 -99.99 -9.99
2018/04/20 10:42 EDT    2.17   2.64   17  330   20  44.8 -99.9 1025.3 -9.9 -9.999 -99.9 -99.99 -9.99
2018/04/20 10:48 EDT    2.23   2.83   15  324   23  45.0 -99.9 1025.4 -9.9 -9.999 -99.9 -99.99 -9.99
2018/04/20 10:54 EDT    2.28   2.72   16  333   21  45.0 -99.9 1025.5 -9.9 -9.999 -99.9 -99.99 -9.99
2018/04/20 11:00 EDT    2.33   2.69   17  343   21  45.1 -99.9 1025.5 -9.9 -9.999 -99.9 -99.99 -9.99
2018/04/20 11:06 EDT    2.38   2.79   19  326   22  45.5 -99.9 1025.4 -9.9 -9.999 -99.9 -99.99 -9.99
2018/04/20 11:12 EDT    2.42   2.84   16  330   21  45.9 -99.9 1025.5 -9.9 -9.999 -99.9 -99.99 -9.99
2018/04/20 11:18 EDT    2.46   2.88   14  318   16  45.7 -99.9 1025.5 -9.9 -9.999 -99.9 -99.99 -9.99
2018/04/20 11:24 EDT    2.50   2.89   12  319   18  45.5 -99.9 1025.5 -9.9 -9.999 -99.9 -99.99 -9.99
2018/04/20 11:30 EDT    2.53   2.87   15  326   18  45.9 -99.9 1025.5 -9.9 -9.999 -99.9 -99.99 -9.99
2018/04/20 11:36 EDT    2.56   2.87   14  338   17  46.2 -99.9 1025.4 -9.9 -9.999 -99.9 -99.99 -9.99
2018/04/20 11:42 EDT    2.59   2.94   15  334   17  46.2 -99.9 1025.3 -9.9 -9.999 -99.9 -99.99 -9.99
2018/04/20 11:48 EDT    2.61   2.84   15  328   18  46.2 -99.9 1025.3 -9.9 -9.999 -99.9 -99.99 -9.99
2018/04/20 11:54 EDT    2.63   2.85   15  331   19  46.6 -99.9 1025.3 -9.9 -9.999 -99.9 -99.99 -9.99
2018/04/20 12:00 EDT    2.64   3.03   14  336   18  46.6 -99.9 1025.3 -9.9 -9.999 -99.9 -99.99 -9.99
2018/04/20 12:06 EDT    2.65   2.94   18  341   20  46.9 -99.9 1025.2 -9.9 -9.999 -99.9 -99.99 -9.99
2018/04/20 12:12 EDT    2.66   2.97   15  334   18  47.5 -99.9 1025.2 -9.9 -9.999 -99.9 -99.99 -9.99
2018/04/20 12:18 EDT    2.66   2.95   17  328   21  47.3 -99.9 1025.3 -9.9 -9.999 -99.9 -99.99 -9.99
2018/04/20 12:24 EDT    2.66   2.86   14  338   17  47.5 -99.9 1025.3 -9.9 -9.999 -99.9 -99.99 -9.99
2018/04/20 12:30 EDT    2.66   2.86   15  331   20  47.7 -99.9 1025.3 -9.9 -9.999 -99.9 -99.99 -9.99
2018/04/20 12:36 EDT    2.65   2.98   13  341   18  47.7 -99.9 1025.3 -9.9 -9.999 -99.9 -99.99 -9.99
2018/04/20 12:42 EDT    2.64   2.89   13  344   17  47.7 -99.9 1025.2 -9.9 -9.999 -99.9 -99.99 -9.99
2018/04/20 12:48 EDT    2.63   2.85   13  335   16  47.7 -99.9 1025.2 -9.9 -9.999 -99.9 -99.99 -9.99
2018/04/20 12:54 EDT    2.61   2.85   15  335   18  48.0 -99.9 1025.1 -9.9 -9.999 -99.9 -99.99 -9.99
2018/04/20 13:00 EDT    2.59   2.80   15  333   17  48.0 -99.9 1025.1 -9.9 -9.999 -99.9 -99.99 -9.99
2018/04/20 13:06 EDT    2.56   2.80   12  338   16  48.2 -99.9 1025.1 -9.9 -9.999 -99.9 -99.99 -9.99
2018/04/20 13:12 EDT    2.54   2.72   11  334   14  48.4 -99.9 1025.1 -9.9 -9.999 -99.9 -99.99 -9.99
2018/04/20 13:18 EDT    2.51   2.69   11  333   14  48.4 -99.9 1025.0 -9.9 -9.999 -99.9 -99.99 -9.99
2018/04/20 13:24 EDT    2.48   2.64   12  351   14  48.4 -99.9 1025.0 -9.9 -9.999 -99.9 -99.99 -9.99
2018/04/20 13:30 EDT    2.44   2.61   11    1   16  48.2 -99.9 1025.0 -9.9 -9.999 -99.9 -99.99 -9.99
2018/04/20 13:36 EDT    2.41   2.55    9    6   12  48.2 -99.9 1025.0 -9.9 -9.999 -99.9 -99.99 -9.99
2018/04/20 13:42 EDT    2.37   2.53   11    5   13  48.2 -99.9 1025.0 -9.9 -9.999 -99.9 -99.99 -9.99
2018/04/20 13:48 EDT    2.33   2.46   10   11   12  48.2 -99.9 1025.1 -9.9 -9.999 -99.9 -99.99 -9.99
2018/04/20 13:54 EDT    2.28   2.44    9   10   12  48.6 -99.9 1025.0 -9.9 -9.999 -99.9 -99.99 -9.99
2018/04/20 14:00 EDT    2.24   2.38   11    3   13  48.6 -99.9 1025.0 -9.9 -9.999 -99.9 -99.99 -9.99
2018/04/20 14:06 EDT    2.19   2.34    9    3   12  48.7 -99.9 1025.1 -9.9 -9.999 -99.9 -99.99 -9.99
2018/04/20 14:12 EDT    2.14   2.31    9    6   11  48.7 -99.9 1025.2 -9.9 -9.999 -99.9 -99.99 -9.99
2018/04/20 14:18 EDT    2.09   2.26    8    8   10  48.9 -99.9 1025.1 -9.9 -9.999 -99.9 -99.99 -9.99
2018/04/20 14:24 EDT    2.04   2.21    8   13   10  49.1 -99.9 1025.0 -9.9 -9.999 -99.9 -99.99 -9.99
2018/04/20 14:30 EDT    1.99   2.16    8   22   10  49.1 -99.9 1025.0 -9.9 -9.999 -99.9 -99.99 -9.99
2018/04/20 14:36 EDT    1.93   2.15    8   18   10  49.3 -99.9 1024.9 -9.9 -9.999 -99.9 -99.99 -9.99
2018/04/20 14:42 EDT    1.88   2.11    8   12   10  49.3 -99.9 1024.9 -9.9 -9.999 -99.9 -99.99 -9.99
2018/04/20 14:48 EDT    1.82   2.00    9   15   10  49.3 -99.9 1024.8 -9.9 -9.999 -99.9 -99.99 -9.99
2018/04/20 14:54 EDT    1.76   1.95    8   18   10  49.3 -99.9 1024.7 -9.9 -9.999 -99.9 -99.99 -9.99
2018/04/20 15:00 EDT    1.70   1.90    7   21    9  49.6 -99.9 1024.6 -9.9 -9.999 -99.9 -99.99 -9.99
2018/04/20 15:06 EDT    1.64   1.84    8   36    9  49.6 -99.9 1024.5 -9.9 -9.999 -99.9 -99.99 -9.99
2018/04/20 15:12 EDT    1.57   1.78    8   34    9  49.8 -99.9 1024.4 -9.9 -9.999 -99.9 -99.99 -9.99
2018/04/20 15:18 EDT    1.51   1.66    9   31   11  49.8 -99.9 1024.4 -9.9 -9.999 -99.9 -99.99 -9.99
2018/04/20 15:24 EDT    1.44   1.59   10   31   11  50.0 -99.9 1024.3 -9.9 -9.999 -99.9 -99.99 -9.99
2018/04/20 15:30 EDT    1.38   1.50   10   36   11  50.0 -99.9 1024.2 -9.9 -9.999 -99.9 -99.99 -9.99
2018/04/20 15:36 EDT    1.31   1.44   10   36   11  50.0 -99.9 1024.2 -9.9 -9.999 -99.9 -99.99 -9.99
2018/04/20 15:42 EDT    1.25   1.38   10   41   11  50.0 -99.9 1024.1 -9.9 -9.999 -99.9 -99.99 -9.99
2018/04/20 15:48 EDT    1.18   1.30    9   45   10  50.2 -99.9 1024.1 -9.9 -9.999 -99.9 -99.99 -9.99
2018/04/20 15:54 EDT    1.11   1.21    9   48   10  50.0 -99.9 1024.1 -9.9 -9.999 -99.9 -99.99 -9.99
2018/04/20 16:00 EDT    1.04   1.14    8   40   10  50.0 -99.9 1024.1 -9.9 -9.999 -99.9 -99.99 -9.99
2018/04/20 16:06 EDT    0.98   1.05    8   47   10  50.0 -99.9 1024.1 -9.9 -9.999 -99.9 -99.99 -9.99
2018/04/20 16:12 EDT    0.91   0.97    4   47    8  50.5 -99.9 1024.3 -9.9 -9.999 -99.9 -99.99 -9.99
2018/04/20 16:18 EDT    0.85   0.90    2   42    4  51.4 -99.9 1024.4 -9.9 -9.999 -99.9 -99.99 -9.99
2018/04/20 16:24 EDT    0.78   0.81    2   61    2  52.5 -99.9 1024.3 -9.9 -9.999 -99.9 -99.99 -9.99
2018/04/20 16:30 EDT    0.72   0.77    4   50    5  52.0 -99.9 1024.3 -9.9 -9.999 -99.9 -99.99 -9.99
2018/04/20 16:36 EDT    0.66   0.69    5   62    6  51.6 -99.9 1024.3 -9.9 -9.999 -99.9 -99.99 -9.99
2018/04/20 16:42 EDT    0.60   0.65    1  127    5  52.9 -99.9 1024.4 -9.9 -9.999 -99.9 -99.99 -9.99
2018/04/20 16:48 EDT    0.54   0.57    3  170    4  53.1 -99.9 1024.4 -9.9 -9.999 -99.9 -99.99 -9.99
2018/04/20 16:54 EDT    0.49   0.52    3  106    5  53.1 -99.9 1024.4 -9.9 -9.999 -99.9 -99.99 -9.99
2018/04/20 17:00 EDT    0.44   0.45    2  116    5  53.8 -99.9 1024.4 -9.9 -9.999 -99.9 -99.99 -9.99
2018/04/20 17:06 EDT    0.39   0.43    3  157    4  53.4 -99.9 1024.4 -9.9 -9.999 -99.9 -99.99 -9.99
2018/04/20 17:12 EDT    0.34   0.35    4  133    5  53.2 -99.9 1024.4 -9.9 -9.999 -99.9 -99.99 -9.99
2018/04/20 17:18 EDT    0.30   0.35    3  104    5  53.6 -99.9 1024.3 -9.9 -9.999 -99.9 -99.99 -9.99
2018/04/20 17:24 EDT    0.25   0.26    3  102    5  53.8 -99.9 1024.3 -9.9 -9.999 -99.9 -99.99 -9.99
2018/04/20 17:30 EDT    0.22   0.25    4  126    5  53.8 -99.9 1024.4 -9.9 -9.999 -99.9 -99.99 -9.99
2018/04/20 17:36 EDT    0.18   0.20    3  156    4  53.8 -99.9 1024.4 -9.9 -9.999 -99.9 -99.99 -9.99
2018/04/20 17:42 EDT    0.15   0.18    3  126    4  54.3 -99.9 1024.3 -9.9 -9.999 -99.9 -99.99 -9.99
2018/04/20 17:48 EDT    0.12   0.14    2  133    3  54.9 -99.9 1024.3 -9.9 -9.999 -99.9 -99.99 -9.99
2018/04/20 17:54 EDT    0.10   0.10    2  159    3  55.0 -99.9 1024.4 -9.9 -9.999 -99.9 -99.99 -9.99
2018/04/20 18:00 EDT    0.08   0.09    2  132    4  55.4 -99.9 1024.4 -9.9 -9.999 -99.9 -99.99 -9.99
2018/04/20 18:06 EDT    0.07   0.08    3   97    4  55.6 -99.9 1024.4 -9.9 -9.999 -99.9 -99.99 -9.99
2018/04/20 18:12 EDT    0.05   0.05    2   82    4  56.1 -99.9 1024.4 -9.9 -9.999 -99.9 -99.99 -9.99
2018/04/20 18:18 EDT    0.04   0.06    2   72    3  56.7 -99.9 1024.5 -9.9 -9.999 -99.9 -99.99 -9.99
2018/04/20 18:24 EDT    0.04   0.05    2  193    3  56.8 -99.9 1024.5 -9.9 -9.999 -99.9 -99.99 -9.99
2018/04/20 18:30 EDT    0.04   0.07    2  195    3  57.0 -99.9 1024.5 -9.9 -9.999 -99.9 -99.99 -9.99
2018/04/20 18:36 EDT    0.04   0.07    1  116    2  59.2 -99.9 1024.5 -9.9 -9.999 -99.9 -99.99 -9.99
2018/04/20 18:42 EDT    0.05   0.10    2   25    2  58.5 -99.9 1024.5 -9.9 -9.999 -99.9 -99.99 -9.99
2018/04/20 18:48 EDT    0.05   0.12    1   23    3  57.7 -99.9 1024.6 -9.9 -9.999 -99.9 -99.99 -9.99
2018/04/20 18:54 EDT    0.07   0.13    0  341    1  59.4 -99.9 1024.6 -9.9 -9.999 -99.9 -99.99 -9.99
2018/04/20 19:00 EDT    0.08   0.16    1  276    2  59.2 -99.9 1024.7 -9.9 -9.999 -99.9 -99.99 -9.99
2018/04/20 19:06 EDT    0.10   0.19    0  275    1  59.4 -99.9 1024.7 -9.9 -9.999 -99.9 -99.99 -9.99
2018/04/20 19:12 EDT    0.13   0.19    1   61    1  59.4 -99.9 1024.8 -9.9 -9.999 -99.9 -99.99 -9.99
2018/04/20 19:18 EDT    0.15   0.25    3  117    3  57.2 -99.9 1024.8 -9.9 -9.999 -99.9 -99.99 -9.99
2018/04/20 19:24 EDT    0.18   0.27    3  111    4  54.7 -99.9 1024.9 -9.9 -9.999 -99.9 -99.99 -9.99
2018/04/20 19:30 EDT    0.22   0.32    1  132    3  53.8 -99.9 1024.9 -9.9 -9.999 -99.9 -99.99 -9.99
2018/04/20 19:36 EDT    0.25   0.36    3   98    4  53.1 -99.9 1024.9 -9.9 -9.999 -99.9 -99.99 -9.99
2018/04/20 19:42 EDT    0.29   0.41    3  126    6  52.0 -99.9 1025.1 -9.9 -9.999 -99.9 -99.99 -9.99
2018/04/20 19:48 EDT    0.34   0.45    2  134    4  51.3 -99.9 1025.2 -9.9 -9.999 -99.9 -99.99 -9.99
2018/04/20 19:54 EDT    0.38   0.53    4  133    5  50.9 -99.9 1025.2 -9.9 -9.999 -99.9 -99.99 -9.99
2018/04/20 20:00 EDT    0.43   0.57    3  115    4  50.9 -99.9 1025.3 -9.9 -9.999 -99.9 -99.99 -9.99
2018/04/20 20:06 EDT    0.48   0.58    4  124    6  50.9 -99.9 1025.4 -9.9 -9.999 -99.9 -99.99 -9.99
2018/04/20 20:12 EDT    0.54   0.66    4  119    6  50.5 -99.9 1025.6 -9.9 -9.999 -99.9 -99.99 -9.99
2018/04/20 20:18 EDT    0.59   0.72    4  117    5  50.4 -99.9 1025.7 -9.9 -9.999 -99.9 -99.99 -9.99
2018/04/20 20:24 EDT    0.65   0.79    4  115    5  50.5 -99.9 1025.8 -9.9 -9.999 -99.9 -99.99 -9.99
2018/04/20 20:30 EDT    0.71   0.83    4  112    5  50.4 -99.9 1025.8 -9.9 -9.999 -99.9 -99.99 -9.99
2018/04/20 20:36 EDT    0.78   0.88    4  108    5  50.4 -99.9 1025.9 -9.9 -9.999 -99.9 -99.99 -9.99
2018/04/20 20:42 EDT    0.84   0.95    5  105    6  50.4 -99.9 1025.9 -9.9 -9.999 -99.9 -99.99 -9.99
2018/04/20 20:48 EDT    0.91   1.04    4  110    5  50.4 -99.9 1026.0 -9.9 -9.999 -99.9 -99.99 -9.99
2018/04/20 20:54 EDT    0.98   1.11    4  112    6  50.5 -99.9 1026.1 -9.9 -9.999 -99.9 -99.99 -9.99
2018/04/20 21:00 EDT    1.05   1.21    4  111    5  50.5 -99.9 1026.2 -9.9 -9.999 -99.9 -99.99 -9.99
2018/04/20 21:06 EDT    1.12   1.29    4  106    4  50.5 -99.9 1026.3 -9.9 -9.999 -99.9 -99.99 -9.99
2018/04/20 21:12 EDT    1.20   1.35    4  114    4  50.7 -99.9 1026.4 -9.9 -9.999 -99.9 -99.99 -9.99
2018/04/20 21:18 EDT    1.27   1.39    4  128    4  50.5 -99.9 1026.4 -9.9 -9.999 -99.9 -99.99 -9.99
2018/04/20 21:24 EDT    1.35   1.51    4  124    4  50.5 -99.9 1026.5 -9.9 -9.999 -99.9 -99.99 -9.99
2018/04/20 21:30 EDT    1.43   1.60    4  139    5  50.4 -99.9 1026.5 -9.9 -9.999 -99.9 -99.99 -9.99
2018/04/20 21:36 EDT    1.50   1.68    4  142    5  50.5 -99.9 1026.6 -9.9 -9.999 -99.9 -99.99 -9.99
2018/04/20 21:42 EDT    1.58   1.76    4  152    5  50.4 -99.9 1026.6 -9.9 -9.999 -99.9 -99.99 -9.99
2018/04/20 21:48 EDT    1.66   1.84    4  145    5  50.4 -99.9 1026.6 -9.9 -9.999 -99.9 -99.99 -9.99
2018/04/20 21:54 EDT    1.74   1.91    4  146    4  50.5 -99.9 1026.7 -9.9 -9.999 -99.9 -99.99 -9.99
2018/04/20 22:00 EDT    1.82   1.98    4  148    4  50.5 -99.9 1026.7 -9.9 -9.999 -99.9 -99.99 -9.99
2018/04/20 22:06 EDT    1.89   2.05    4  155    4  50.7 -99.9 1026.8 -9.9 -9.999 -99.9 -99.99 -9.99
2018/04/20 22:12 EDT    1.97   2.13    4  164    5  50.9 -99.9 1026.8 -9.9 -9.999 -99.9 -99.99 -9.99
2018/04/20 22:18 EDT    2.05   2.20    4  173    5  50.9 -99.9 1026.9 -9.9 -9.999 -99.9 -99.99 -9.99
2018/04/20 22:24 EDT    2.13   2.28    5  171    6  50.9 -99.9 1026.9 -9.9 -9.999 -99.9 -99.99 -9.99
2018/04/20 22:30 EDT    2.20   2.36    8  191    9  50.4 -99.9 1026.9 -9.9 -9.999 -99.9 -99.99 -9.99
2018/04/20 22:36 EDT    2.27   2.39    9  186   10  49.8 -99.9 1027.0 -9.9 -9.999 -99.9 -99.99 -9.99
2018/04/20 22:42 EDT    2.35   2.46    8  190    9  49.6 -99.9 1027.2 -9.9 -9.999 -99.9 -99.99 -9.99
2018/04/20 22:48 EDT    2.42   2.55    9  192   10  49.6 -99.9 1027.1 -9.9 -9.999 -99.9 -99.99 -9.99
2018/04/20 22:54 EDT    2.48   2.61    7  198    9  49.8 -99.9 1027.2 -9.9 -9.999 -99.9 -99.99 -9.99
2018/04/20 23:00 EDT    2.55   2.65    7  200    9  49.6 -99.9 1027.2 -9.9 -9.999 -99.9 -99.99 -9.99
2018/04/20 23:06 EDT    2.62   2.73    7  199    8  49.6 -99.9 1027.2 -9.9 -9.999 -99.9 -99.99 -9.99
2018/04/20 23:12 EDT    2.68   2.78    6  208    8  49.6 -99.9 1027.3 -9.9 -9.999 -99.9 -99.99 -9.99
2018/04/20 23:18 EDT    2.74   2.80    6  205    9  49.6 -99.9 1027.4 -9.9 -9.999 -99.9 -99.99 -9.99
2018/04/20 23:24 EDT    2.79   2.85    8  201    9  49.5 -99.9 1027.4 -9.9 -9.999 -99.9 -99.99 -9.99
2018/04/20 23:30 EDT    2.84   2.90    7  204    9  49.6 -99.9 1027.4 -9.9 -9.999 -99.9 -99.99 -9.99
2018/04/20 23:36 EDT    2.89   2.95    7  205    9  49.6 -99.9 1027.5 -9.9 -9.999 -99.9 -99.99 -9.99
2018/04/20 23:42 EDT    2.94   2.98    8  212    9  49.5 -99.9 1027.5 -9.9 -9.999 -99.9 -99.99 -9.99
2018/04/20 23:48 EDT    2.98   3.00    7  206   10  49.5 -99.9 1027.5 -9.9 -9.999 -99.9 -99.99 -9.99
2018/04/20 23:54 EDT    3.02   3.01    7  213    8  49.5 -99.9 1027.5 -9.9 -9.999 -99.9 -99.99 -9.99
2018/04/21 00:00 EDT    3.06   3.04    8  210   10  49.3 -99.9 1027.6 -9.9 -9.999 -99.9 -99.99 -9.99
2018/04/21 00:06 EDT    3.09   3.07    7  218    9  49.3 -99.9 1027.7 -9.9 -9.999 -99.9 -99.99 -9.99
2018/04/21 00:12 EDT    3.12   3.05    5  218    7  49.3 -99.9 1027.7 -9.9 -9.999 -99.9 -99.99 -9.99
2018/04/21 00:18 EDT    3.14   3.06    7  221    9  49.3 -99.9 1027.7 -9.9 -9.999 -99.9 -99.99 -9.99
2018/04/21 00:24 EDT    3.16   3.10    7  221    9  49.1 -99.9 1027.7 -9.9 -9.999 -99.9 -99.99 -9.99
2018/04/21 00:30 EDT    3.17   3.09    7  221    9  49.1 -99.9 1027.8 -9.9 -9.999 -99.9 -99.99 -9.99
2018/04/21 00:36 EDT    3.19   3.13    7  218    8  49.1 -99.9 1027.8 -9.9 -9.999 -99.9 -99.99 -9.99
2018/04/21 00:42 EDT    3.19   3.13    6  219    8  49.1 -99.9 1027.7 -9.9 -9.999 -99.9 -99.99 -9.99
2018/04/21 00:48 EDT    3.20   3.13    7  207    9  48.9 -99.9 1027.7 -9.9 -9.999 -99.9 -99.99 -9.99
2018/04/21 00:54 EDT    3.20   3.14    7  219    9  48.9 -99.9 1027.7 -9.9 -9.999 -99.9 -99.99 -9.99
2018/04/21 01:00 EDT    3.19   3.13    6  223    9  48.9 -99.9 1027.7 -9.9 -9.999 -99.9 -99.99 -9.99
2018/04/21 01:06 EDT    3.19   3.12    7  220    9  48.9 -99.9 1027.7 -9.9 -9.999 -99.9 -99.99 -9.99
2018/04/21 01:12 EDT    3.17   3.10    8  222    9  49.1 -99.9 1027.6 -9.9 -9.999 -99.9 -99.99 -9.99
2018/04/21 01:18 EDT    3.16   3.08    6  227    9  49.3 -99.9 1027.6 -9.9 -9.999 -99.9 -99.99 -9.99
2018/04/21 01:24 EDT    3.14   3.05    6  224    9  49.3 -99.9 1027.5 -9.9 -9.999 -99.9 -99.99 -9.99
2018/04/21 01:30 EDT    3.12   3.05    6  233    9  49.3 -99.9 1027.4 -9.9 -9.999 -99.9 -99.99 -9.99
2018/04/21 01:36 EDT    3.10   3.02    5  236    7  49.3 -99.9 1027.4 -9.9 -9.999 -99.9 -99.99 -9.99
2018/04/21 01:42 EDT    3.07   2.99    5  233    7  49.3 -99.9 1027.3 -9.9 -9.999 -99.9 -99.99 -9.99
2018/04/21 01:48 EDT    3.04   2.95    5  239    7  49.1 -99.9 1027.3 -9.9 -9.999 -99.9 -99.99 -9.99
2018/04/21 01:54 EDT    3.01   2.92    5  231    7  49.1 -99.9 1027.3 -9.9 -9.999 -99.9 -99.99 -9.99
2018/04/21 02:00 EDT    2.97   2.88    5  233    8  49.1 -99.9 1027.2 -9.9 -9.999 -99.9 -99.99 -9.99
2018/04/21 02:06 EDT    2.93   2.84    5  233    7  49.3 -99.9 1027.2 -9.9 -9.999 -99.9 -99.99 -9.99
2018/04/21 02:12 EDT    2.89   2.81    7  242    8  49.3 -99.9 1027.1 -9.9 -9.999 -99.9 -99.99 -9.99
2018/04/21 02:18 EDT    2.85   2.75    7  244    7  49.3 -99.9 1027.1 -9.9 -9.999 -99.9 -99.99 -9.99
2018/04/21 02:24 EDT    2.80   2.71    7  251    8  49.5 -99.9 1027.1 -9.9 -9.999 -99.9 -99.99 -9.99
2018/04/21 02:30 EDT    2.76   2.65    6  248    7  49.3 -99.9 1027.1 -9.9 -9.999 -99.9 -99.99 -9.99
2018/04/21 02:36 EDT    2.71   2.63    5  243    7  49.3 -99.9 1027.1 -9.9 -9.999 -99.9 -99.99 -9.99
2018/04/21 02:42 EDT    2.65   2.56    6  241    7  49.3 -99.9 1027.2 -9.9 -9.999 -99.9 -99.99 -9.99
2018/04/21 02:48 EDT    2.60   2.51    7  253    8  49.3 -99.9 1027.3 -9.9 -9.999 -99.9 -99.99 -9.99
2018/04/21 02:54 EDT    2.55   2.45    8  246   10  49.3 -99.9 1027.3 -9.9 -9.999 -99.9 -99.99 -9.99
2018/04/21 03:00 EDT    2.49   2.39    9  238   11  48.9 -99.9 1027.3 -9.9 -9.999 -99.9 -99.99 -9.99
2018/04/21 03:06 EDT    2.43   2.32   10  239   13  48.6 -99.9 1027.4 -9.9 -9.999 -99.9 -99.99 -9.99
2018/04/21 03:12 EDT    2.37   2.28   13  257   14  48.7 -99.9 1027.4 -9.9 -9.999 -99.9 -99.99 -9.99
2018/04/21 03:18 EDT    2.30   2.19   12  253   15  48.4 -99.9 1027.6 -9.9 -9.999 -99.9 -99.99 -9.99
2018/04/21 03:24 EDT    2.24   2.11   11  255   13  48.4 -99.9 1027.6 -9.9 -9.999 -99.9 -99.99 -9.99
2018/04/21 03:30 EDT    2.17   2.05   11  261   12  48.6 -99.9 1027.7 -9.9 -9.999 -99.9 -99.99 -9.99
2018/04/21 03:36 EDT    2.10   1.99   10  263   11  48.6 -99.9 1027.9 -9.9 -9.999 -99.9 -99.99 -9.99
2018/04/21 03:42 EDT    2.03   1.90   10  268   13  48.6 -99.9 1028.0 -9.9 -9.999 -99.9 -99.99 -9.99
2018/04/21 03:48 EDT    1.96   1.81   10  268   11  48.7 -99.9 1028.0 -9.9 -9.999 -99.9 -99.99 -9.99
2018/04/21 03:54 EDT    1.89   1.74    9  271   11  48.9 -99.9 1028.2 -9.9 -9.999 -99.9 -99.99 -9.99
2018/04/21 04:00 EDT    1.82   1.62   11  270   12  49.1 -99.9 1028.3 -9.9 -9.999 -99.9 -99.99 -9.99
2018/04/21 04:06 EDT    1.74   1.59 -999 -999 -999 -99.9 -99.9 -999.9 -9.9 -9.999 -99.9 -99.99 -9.99
2018/04/21 04:12 EDT    1.67   1.51   10  286   12  49.5 -99.9 1028.4 -9.9 -9.999 -99.9 -99.99 -9.99
2018/04/21 04:18 EDT    1.59   1.43    9  288   12  49.6 -99.9 1028.4 -9.9 -9.999 -99.9 -99.99 -9.99
2018/04/21 04:24 EDT    1.52   1.37    9  305   10  49.1 -99.9 1028.4 -9.9 -9.999 -99.9 -99.99 -9.99
2018/04/21 04:30 EDT    1.44   1.27    8  312    9  49.1 -99.9 1028.5 -9.9 -9.999 -99.9 -99.99 -9.99
2018/04/21 04:36 EDT    1.37   1.19    8  311    9  48.9 -99.9 1028.5 -9.9 -9.999 -99.9 -99.99 -9.99
2018/04/21 04:42 EDT    1.29   1.15    7  321    9  48.7 -99.9 1028.5 -9.9 -9.999 -99.9 -99.99 -9.99
2018/04/21 04:48 EDT    1.22   1.03    7  326    8  48.6 -99.9 1028.6 -9.9 -9.999 -99.9 -99.99 -9.99
2018/04/21 04:54 EDT    1.15   0.97    9  319    9  48.6 -99.9 1028.7 -9.9 -9.999 -99.9 -99.99 -9.99
2018/04/21 05:00 EDT    1.08   0.91    8  344   10  48.7 -99.9 1028.8 -9.9 -9.999 -99.9 -99.99 -9.99
2018/04/21 05:06 EDT    1.01   0.87   10  339   11  48.6 -99.9 1028.9 -9.9 -9.999 -99.9 -99.99 -9.99
2018/04/21 05:12 EDT    0.94   0.81   11  341   12  48.6 -99.9 1028.9 -9.9 -9.999 -99.9 -99.99 -9.99
2018/04/21 05:18 EDT    0.87   0.77   10  335   11  48.6 -99.9 1028.9 -9.9 -9.999 -99.9 -99.99 -9.99
2018/04/21 05:24 EDT    0.80   0.71    9  341   10  48.9 -99.9 1029.0 -9.9 -9.999 -99.9 -99.99 -9.99
2018/04/21 05:30 EDT    0.74   0.69    9  339   10  49.1 -99.9 1029.0 -9.9 -9.999 -99.9 -99.99 -9.99
2018/04/21 05:36 EDT    0.68   0.64    9  346   10  48.9 -99.9 1029.0 -9.9 -9.999 -99.9 -99.99 -9.99
2018/04/21 05:42 EDT    0.62   0.61    9  339   10  49.1 -99.9 1029.0 -9.9 -9.999 -99.9 -99.99 -9.99
2018/04/21 05:48 EDT    0.57   0.60    8  335   10  49.1 -99.9 1029.0 -9.9 -9.999 -99.9 -99.99 -9.99
2018/04/21 05:54 EDT    0.52   0.55    8  350    9  49.3 -99.9 1029.1 -9.9 -9.999 -99.9 -99.99 -9.99
2018/04/21 06:00 EDT    0.47   0.53    6  351    8  49.3 -99.9 1029.1 -9.9 -9.999 -99.9 -99.99 -9.99
2018/04/21 06:06 EDT    0.42   0.50    8   12    8  49.3 -99.9 1029.2 -9.9 -9.999 -99.9 -99.99 -9.99
2018/04/21 06:12 EDT    0.38   0.48    9   53   12  48.9 -99.9 1029.3 -9.9 -9.999 -99.9 -99.99 -9.99
2018/04/21 06:18 EDT    0.34   0.44   11   79   14  48.4 -99.9 1029.4 -9.9 -9.999 -99.9 -99.99 -9.99
2018/04/21 06:24 EDT    0.30   0.36   11   83   15  48.2 -99.9 1029.5 -9.9 -9.999 -99.9 -99.99 -9.99
2018/04/21 06:30 EDT    0.27   0.36   12   81   15  48.0 -99.9 1029.6 -9.9 -9.999 -99.9 -99.99 -9.99
2018/04/21 06:36 EDT    0.24   0.34   13   83   16  48.0 -99.9 1029.7 -9.9 -9.999 -99.9 -99.99 -9.99
2018/04/21 06:42 EDT    0.21   0.32   12   72   15  47.8 -99.9 1029.8 -9.9 -9.999 -99.9 -99.99 -9.99
2018/04/21 06:48 EDT    0.19   0.27   14   70   16  47.7 -99.9 1029.8 -9.9 -9.999 -99.9 -99.99 -9.99
2018/04/21 06:54 EDT    0.17   0.22   14   72   17  47.7 -99.9 1029.8 -9.9 -9.999 -99.9 -99.99 -9.99
2018/04/21 07:00 EDT    0.16   0.24   15   70   17  47.5 -99.9 1029.8 -9.9 -9.999 -99.9 -99.99 -9.99
2018/04/21 07:06 EDT    0.14   0.22   13   70   16  47.5 -99.9 1030.0 -9.9 -9.999 -99.9 -99.99 -9.99
2018/04/21 07:12 EDT    0.14   0.20   15   69   17  47.5 -99.9 1030.0 -9.9 -9.999 -99.9 -99.99 -9.99
2018/04/21 07:18 EDT    0.13   0.17   14   70   17  47.3 -99.9 1030.1 -9.9 -9.999 -99.9 -99.99 -9.99
2018/04/21 07:24 EDT    0.13   0.18   13   73   16  47.5 -99.9 1030.2 -9.9 -9.999 -99.9 -99.99 -9.99
2018/04/21 07:30 EDT    0.13   0.17   13   71   17  47.3 -99.9 1030.1 -9.9 -9.999 -99.9 -99.99 -9.99
2018/04/21 07:36 EDT    0.13   0.18   13   73   15  47.5 -99.9 1030.2 -9.9 -9.999 -99.9 -99.99 -9.99
2018/04/21 07:42 EDT    0.14   0.18   12   74   15  47.7 -99.9 1030.3 -9.9 -9.999 -99.9 -99.99 -9.99
2018/04/21 07:48 EDT    0.15   0.17   13   72   16  47.5 -99.9 1030.3 -9.9 -9.999 -99.9 -99.99 -9.99
2018/04/21 07:54 EDT    0.17   0.18   11   74   15  47.7 -99.9 1030.3 -9.9 -9.999 -99.9 -99.99 -9.99
2018/04/21 08:00 EDT    0.19   0.18   12   68   15  47.5 -99.9 1030.2 -9.9 -9.999 -99.9 -99.99 -9.99
2018/04/21 08:06 EDT    0.21   0.21   14   67   16  47.3 -99.9 1030.2 -9.9 -9.999 -99.9 -99.99 -9.99
2018/04/21 08:12 EDT    0.23   0.22   13   64   15  47.3 -99.9 1030.2 -9.9 -9.999 -99.9 -99.99 -9.99
2018/04/21 08:18 EDT    0.26   0.27   13   60   15  47.1 -99.9 1030.3 -9.9 -9.999 -99.9 -99.99 -9.99
2018/04/21 08:24 EDT    0.29   0.27   12   66   15  46.9 -99.9 1030.4 -9.9 -9.999 -99.9 -99.99 -9.99
2018/04/21 08:30 EDT    0.32   0.31   11   72   14  47.3 -99.9 1030.5 -9.9 -9.999 -99.9 -99.99 -9.99
2018/04/21 08:36 EDT    0.36   0.34   11   67   13  47.3 -99.9 1030.6 -9.9 -9.999 -99.9 -99.99 -9.99
2018/04/21 08:42 EDT    0.40   0.35   10   70   13  47.3 -99.9 1030.5 -9.9 -9.999 -99.9 -99.99 -9.99
2018/04/21 08:48 EDT    0.44   0.41   10   67   12  47.3 -99.9 1030.6 -9.9 -9.999 -99.9 -99.99 -9.99
2018/04/21 08:54 EDT    0.48   0.46   11   64   12  47.3 -99.9 1030.6 -9.9 -9.999 -99.9 -99.99 -9.99
2018/04/21 09:00 EDT    0.53   0.51   10   65   12  47.3 -99.9 1030.7 -9.9 -9.999 -99.9 -99.99 -9.99
2018/04/21 09:06 EDT    0.58   0.57    9   63   11  47.5 -99.9 1030.6 -9.9 -9.999 -99.9 -99.99 -9.99
2018/04/21 09:12 EDT    0.63   0.63    9   61   11  47.3 -99.9 1030.6 -9.9 -9.999 -99.9 -99.99 -9.99
2018/04/21 09:18 EDT    0.68   0.69    8   65   10  47.7 -99.9 1030.6 -9.9 -9.999 -99.9 -99.99 -9.99
2018/04/21 09:24 EDT    0.74   0.73    8   64    9  47.8 -99.9 1030.7 -9.9 -9.999 -99.9 -99.99 -9.99
2018/04/21 09:30 EDT    0.79   0.80    8   50   10  47.7 -99.9 1030.8 -9.9 -9.999 -99.9 -99.99 -9.99
2018/04/21 09:36 EDT    0.85   0.84    8   58    9  47.7 -99.9 1030.8 -9.9 -9.999 -99.9 -99.99 -9.99
2018/04/21 09:42 EDT    0.91   0.92    8   54    9  47.7 -99.9 1030.9 -9.9 -9.999 -99.9 -99.99 -9.99
2018/04/21 09:48 EDT    0.97   0.93    7   53   10  47.7 -99.9 1030.9 -9.9 -9.999 -99.9 -99.99 -9.99
2018/04/21 09:54 EDT    1.04   1.04    7   49    8  47.8 -99.9 1031.1 -9.9 -9.999 -99.9 -99.99 -9.99
2018/04/21 10:00 EDT    1.10   1.13    6   59    8  47.8 -99.9 1031.1 -9.9 -9.999 -99.9 -99.99 -9.99
2018/04/21 10:06 EDT    1.16   1.18    7   53    7  48.0 -99.9 1031.1 -9.9 -9.999 -99.9 -99.99 -9.99
2018/04/21 10:12 EDT    1.23   1.24    5   51    7  48.0 -99.9 1031.1 -9.9 -9.999 -99.9 -99.99 -9.99
2018/04/21 10:18 EDT    1.30   1.34    6   59    8  48.0 -99.9 1031.2 -9.9 -9.999 -99.9 -99.99 -9.99
2018/04/21 10:24 EDT    1.36   1.41    5   54    7  48.2 -99.9 1031.2 -9.9 -9.999 -99.9 -99.99 -9.99
2018/04/21 10:30 EDT    1.43   1.48    5   62    7  48.2 -99.9 1031.1 -9.9 -9.999 -99.9 -99.99 -9.99
2018/04/21 10:36 EDT    1.49   1.52    5   60    6  48.6 -99.9 1031.2 -9.9 -9.999 -99.9 -99.99 -9.99
2018/04/21 10:42 EDT    1.56   1.60    5   56    6  48.6 -99.9 1031.2 -9.9 -9.999 -99.9 -99.99 -9.99
2018/04/21 10:48 EDT    1.62   1.72    5   42    7  48.4 -99.9 1031.3 -9.9 -9.999 -99.9 -99.99 -9.99
2018/04/21 10:54 EDT    1.69   1.77    5   38    6  48.4 -99.9 1031.3 -9.9 -9.999 -99.9 -99.99 -9.99
2018/04/21 11:00 EDT    1.75   1.85    5   38    6  48.6 -99.9 1031.4 -9.9 -9.999 -99.9 -99.99 -9.99
2018/04/21 11:06 EDT    1.81   1.94    4   38    5  48.6 -99.9 1031.4 -9.9 -9.999 -99.9 -99.99 -9.99
2018/04/21 11:12 EDT    1.88   1.99    4   34    5  48.7 -99.9 1031.4 -9.9 -9.999 -99.9 -99.99 -9.99
2018/04/21 11:18 EDT    1.94   2.08    3   43    4  48.9 -99.9 1031.4 -9.9 -9.999 -99.9 -99.99 -9.99
2018/04/21 11:24 EDT    1.99   2.13    3   22    4  49.1 -99.9 1031.4 -9.9 -9.999 -99.9 -99.99 -9.99
2018/04/21 11:30 EDT    2.05   2.14    4    6    4  49.1 -99.9 1031.3 -9.9 -9.999 -99.9 -99.99 -9.99
2018/04/21 11:36 EDT    2.11   2.19    6    5    6  48.7 -99.9 1031.2 -9.9 -9.999 -99.9 -99.99 -9.99
2018/04/21 11:42 EDT    2.16   2.25    5    6    7  48.6 -99.9 1031.1 -9.9 -9.999 -99.9 -99.99 -9.99
2018/04/21 11:48 EDT    2.21   2.29    5  349    7  48.6 -99.9 1031.1 -9.9 -9.999 -99.9 -99.99 -9.99
2018/04/21 11:54 EDT    2.25   2.35    5    2    7  48.4 -99.9 1031.1 -9.9 -9.999 -99.9 -99.99 -9.99
2018/04/21 12:00 EDT    2.30   2.38    4  354    5  48.6 -99.9 1031.0 -9.9 -9.999 -99.9 -99.99 -9.99
2018/04/21 12:06 EDT    2.34   2.41    4    0    5  48.6 -99.9 1030.9 -9.9 -9.999 -99.9 -99.99 -9.99
2018/04/21 12:12 EDT    2.38   2.47    4  341    5  48.7 -99.9 1030.9 -9.9 -9.999 -99.9 -99.99 -9.99
2018/04/21 12:18 EDT    2.42   2.47    4  348    5  48.9 -99.9 1030.8 -9.9 -9.999 -99.9 -99.99 -9.99
2018/04/21 12:24 EDT    2.45   2.49    4  338    5  48.9 -99.9 1030.8 -9.9 -9.999 -99.9 -99.99 -9.99
2018/04/21 12:30 EDT    2.48   2.51    3  333    5  49.1 -99.9 1030.7 -9.9 -9.999 -99.9 -99.99 -9.99
2018/04/21 12:36 EDT    2.50   2.53    3  320    4  49.5 -99.9 1030.6 -9.9 -9.999 -99.9 -99.99 -9.99
2018/04/21 12:42 EDT    2.53   2.56    1  307    3  49.8 -99.9 1030.6 -9.9 -9.999 -99.9 -99.99 -9.99
2018/04/21 12:48 EDT    2.54   2.53    1  288    2  50.5 -99.9 1030.6 -9.9 -9.999 -99.9 -99.99 -9.99
2018/04/21 12:54 EDT    2.56   2.59    1   68    2  51.3 -99.9 1030.5 -9.9 -9.999 -99.9 -99.99 -9.99
2018/04/21 13:00 EDT    2.57   2.57    3  128    4  51.6 -99.9 1030.4 -9.9 -9.999 -99.9 -99.99 -9.99
2018/04/21 13:06 EDT    2.58   2.60    4  116    6  50.7 -99.9 1030.3 -9.9 -9.999 -99.9 -99.99 -9.99
2018/04/21 13:12 EDT    2.59   2.58    3  109    4  50.7 -99.9 1030.2 -9.9 -9.999 -99.9 -99.99 -9.99
2018/04/21 13:18 EDT    2.59   2.59    3  125    4  50.7 -99.9 1030.1 -9.9 -9.999 -99.9 -99.99 -9.99
2018/04/21 13:24 EDT    2.59   2.58    3  137    4  50.7 -99.9 1030.1 -9.9 -9.999 -99.9 -99.99 -9.99
2018/04/21 13:30 EDT    2.58   2.57    4  123    5  50.7 -99.9 1030.0 -9.9 -9.999 -99.9 -99.99 -9.99
2018/04/21 13:36 EDT    2.58   2.56    3  106    4  50.5 -99.9 1030.0 -9.9 -9.999 -99.9 -99.99 -9.99
2018/04/21 13:42 EDT    2.57   2.56    3  132    4  50.5 -99.9 1030.0 -9.9 -9.999 -99.9 -99.99 -9.99
2018/04/21 13:48 EDT    2.55   2.54    2   92    3  51.1 -99.9 1029.9 -9.9 -9.999 -99.9 -99.99 -9.99
2018/04/21 13:54 EDT    2.54   2.52    2   56    3  51.3 -99.9 1029.9 -9.9 -9.999 -99.9 -99.99 -9.99
2018/04/21 14:00 EDT    2.52   2.49    3   18    4  50.4 -99.9 1029.9 -9.9 -9.999 -99.9 -99.99 -9.99
2018/04/21 14:06 EDT    2.50   2.47    2   53    3  50.2 -99.9 1029.7 -9.9 -9.999 -99.9 -99.99 -9.99
2018/04/21 14:12 EDT    2.47   2.43    1   52    2  50.9 -99.9 1029.6 -9.9 -9.999 -99.9 -99.99 -9.99
2018/04/21 14:18 EDT    2.45   2.41    1   65    2  52.2 -99.9 1029.5 -9.9 -9.999 -99.9 -99.99 -9.99
2018/04/21 14:24 EDT    2.42   2.38    0  321    1  52.9 -99.9 1029.4 -9.9 -9.999 -99.9 -99.99 -9.99
2018/04/21 14:30 EDT    2.39   2.37    0  192    2  52.7 -99.9 1029.3 -9.9 -9.999 -99.9 -99.99 -9.99
2018/04/21 14:36 EDT    2.36   2.32    2   47    4  50.9 -99.9 1029.2 -9.9 -9.999 -99.9 -99.99 -9.99
2018/04/21 14:42 EDT    2.32   2.32    4  108    5  50.9 -99.9 1029.2 -9.9 -9.999 -99.9 -99.99 -9.99
2018/04/21 14:48 EDT    2.29   2.28    4  121    5  50.7 -99.9 1029.0 -9.9 -9.999 -99.9 -99.99 -9.99
2018/04/21 14:54 EDT    2.25   2.24    4   95    6  50.5 -99.9 1029.0 -9.9 -9.999 -99.9 -99.99 -9.99
2018/04/21 15:00 EDT    2.21   2.22    4  109    5  50.7 -99.9 1028.8 -9.9 -9.999 -99.9 -99.99 -9.99
2018/04/21 15:06 EDT    2.17   2.19    2   99    6  50.7 -99.9 1028.7 -9.9 -9.999 -99.9 -99.99 -9.99
2018/04/21 15:12 EDT    2.12   2.16    4  105    5  50.7 -99.9 1028.7 -9.9 -9.999 -99.9 -99.99 -9.99
2018/04/21 15:18 EDT    2.08   2.10    4  118    5  50.7 -99.9 1028.6 -9.9 -9.999 -99.9 -99.99 -9.99
2018/04/21 15:24 EDT    2.03   2.04    3  118    5  50.9 -99.9 1028.6 -9.9 -9.999 -99.9 -99.99 -9.99
2018/04/21 15:30 EDT    1.98   2.00    4  134    5  50.5 -99.9 1028.6 -9.9 -9.999 -99.9 -99.99 -9.99
2018/04/21 15:36 EDT    1.93   1.93    5  116    7  50.4 -99.9 1028.5 -9.9 -9.999 -99.9 -99.99 -9.99
2018/04/21 15:42 EDT    1.88   1.88    5  133    7  49.8 -99.9 1028.5 -9.9 -9.999 -99.9 -99.99 -9.99
2018/04/21 15:48 EDT    1.82   1.82    6  123    8  49.5 -99.9 1028.5 -9.9 -9.999 -99.9 -99.99 -9.99
2018/04/21 15:54 EDT    1.77   1.79    7  133    9  49.5 -99.9 1028.4 -9.9 -9.999 -99.9 -99.99 -9.99
2018/04/21 16:00 EDT    1.71   1.73    6  124    7  49.6 -99.9 1028.4 -9.9 -9.999 -99.9 -99.99 -9.99
2018/04/21 16:06 EDT    1.65   1.68    7  116    8  49.6 -99.9 1028.4 -9.9 -9.999 -99.9 -99.99 -9.99
2018/04/21 16:12 EDT    1.60   1.63    8  125    9  49.3 -99.9 1028.3 -9.9 -9.999 -99.9 -99.99 -9.99
2018/04/21 16:18 EDT    1.54   1.55    6  115    8  49.6 -99.9 1028.2 -9.9 -9.999 -99.9 -99.99 -9.99
2018/04/21 16:24 EDT    1.47   1.50    7  118    9  49.5 -99.9 1028.2 -9.9 -9.999 -99.9 -99.99 -9.99
2018/04/21 16:30 EDT    1.41   1.40    7  123    9  49.5 -99.9 1028.1 -9.9 -9.999 -99.9 -99.99 -9.99
2018/04/21 16:36 EDT    1.35   1.37    7  116    9  49.5 -99.9 1028.1 -9.9 -9.999 -99.9 -99.99 -9.99
2018/04/21 16:42 EDT    1.29   1.29    8  125   10  49.3 -99.9 1028.1 -9.9 -9.999 -99.9 -99.99 -9.99
2018/04/21 16:48 EDT    1.22   1.23    8  118   10  49.3 -99.9 1028.1 -9.9 -9.999 -99.9 -99.99 -9.99
2018/04/21 16:54 EDT    1.16   1.16    8  114   10  49.5 -99.9 1028.0 -9.9 -9.999 -99.9 -99.99 -9.99
2018/04/21 17:00 EDT    1.10   1.09    8  120   11  49.6 -99.9 1028.0 -9.9 -9.999 -99.9 -99.99 -9.99
2018/04/21 17:06 EDT    1.04   1.04    9  119   11  49.5 -99.9 1028.0 -9.9 -9.999 -99.9 -99.99 -9.99
2018/04/21 17:12 EDT    0.97   0.97    8  117   10  49.6 -99.9 1028.0 -9.9 -9.999 -99.9 -99.99 -9.99
2018/04/21 17:18 EDT    0.91   0.91    9  128   11  49.5 -99.9 1028.0 -9.9 -9.999 -99.9 -99.99 -9.99
2018/04/21 17:24 EDT    0.85   0.86   10  129   12  49.5 -99.9 1028.0 -9.9 -9.999 -99.9 -99.99 -9.99
2018/04/21 17:30 EDT    0.80   0.79   10  132   13  49.5 -99.9 1028.0 -9.9 -9.999 -99.9 -99.99 -9.99
2018/04/21 17:36 EDT    0.74   0.74   11  133   13  49.8 -99.9 1027.9 -9.9 -9.999 -99.9 -99.99 -9.99
2018/04/21 17:42 EDT    0.68   0.66   10  151   13  49.8 -99.9 1028.0 -9.9 -9.999 -99.9 -99.99 -9.99
2018/04/21 17:48 EDT    0.63   0.63   11  156   13  50.0 -99.9 1028.0 -9.9 -9.999 -99.9 -99.99 -9.99
2018/04/21 17:54 EDT    0.58   0.59   12  157   14  49.8 -99.9 1028.0 -9.9 -9.999 -99.9 -99.99 -9.99
2018/04/21 18:00 EDT    0.53   0.52   11  153   14  50.0 -99.9 1028.0 -9.9 -9.999 -99.9 -99.99 -9.99
2018/04/21 18:06 EDT    0.48   0.50   11  156   12  50.0 -99.9 1028.0 -9.9 -9.999 -99.9 -99.99 -9.99
2018/04/21 18:12 EDT    0.44   0.46   12  156   14  49.8 -99.9 1028.0 -9.9 -9.999 -99.9 -99.99 -9.99
2018/04/21 18:18 EDT    0.40   0.43   11  151   13  50.0 -99.9 1028.0 -9.9 -9.999 -99.9 -99.99 -9.99
2018/04/21 18:24 EDT    0.36   0.39   11  148   13  50.0 -99.9 1028.0 -9.9 -9.999 -99.9 -99.99 -9.99
2018/04/21 18:30 EDT    0.33   0.36   11  150   13  50.2 -99.9 1027.9 -9.9 -9.999 -99.9 -99.99 -9.99
2018/04/21 18:36 EDT    0.29   0.32   11  153   13  50.2 -99.9 1027.8 -9.9 -9.999 -99.9 -99.99 -9.99
2018/04/21 18:42 EDT    0.26   0.30   11  151   13  50.2 -99.9 1027.8 -9.9 -9.999 -99.9 -99.99 -9.99
2018/04/21 18:48 EDT    0.24   0.27   11  146   12  50.2 -99.9 1027.8 -9.9 -9.999 -99.9 -99.99 -9.99
2018/04/21 18:54 EDT    0.22   0.22   11  148   13  50.2 -99.9 1027.9 -9.9 -9.999 -99.9 -99.99 -9.99
2018/04/21 19:00 EDT    0.20   0.22   11  149   13  50.0 -99.9 1027.9 -9.9 -9.999 -99.9 -99.99 -9.99
2018/04/21 19:06 EDT    0.18   0.19   12  147   14  49.6 -99.9 1027.9 -9.9 -9.999 -99.9 -99.99 -9.99
2018/04/21 19:12 EDT    0.17   0.19   12  154   14  49.6 -99.9 1027.8 -9.9 -9.999 -99.9 -99.99 -9.99
2018/04/21 19:18 EDT    0.16   0.15   12  161   14  49.6 -99.9 1028.0 -9.9 -9.999 -99.9 -99.99 -9.99
2018/04/21 19:24 EDT    0.15   0.16   12  168   13  49.5 -99.9 1028.1 -9.9 -9.999 -99.9 -99.99 -9.99
2018/04/21 19:30 EDT    0.15   0.16   10  168   13  49.8 -99.9 1028.1 -9.9 -9.999 -99.9 -99.99 -9.99
2018/04/21 19:36 EDT    0.15   0.18   11  165   13  49.8 -99.9 1028.2 -9.9 -9.999 -99.9 -99.99 -9.99
2018/04/21 19:42 EDT    0.15   0.15   10  165   12  50.0 -99.9 1028.1 -9.9 -9.999 -99.9 -99.99 -9.99
2018/04/21 19:48 EDT    0.16   0.15    9  167   11  50.2 -99.9 1028.2 -9.9 -9.999 -99.9 -99.99 -9.99
2018/04/21 19:54 EDT    0.17   0.18   11  171   12  50.2 -99.9 1028.2 -9.9 -9.999 -99.9 -99.99 -9.99
2018/04/21 20:00 EDT    0.18   0.15   10  175   12  50.2 -99.9 1028.1 -9.9 -9.999 -99.9 -99.99 -9.99
2018/04/21 20:06 EDT    0.20   0.18    9  168   12  50.0 -99.9 1028.1 -9.9 -9.999 -99.9 -99.99 -9.99
2018/04/21 20:12 EDT    0.22   0.21   10  168   12  50.0 -99.9 1028.1 -9.9 -9.999 -99.9 -99.99 -9.99
2018/04/21 20:18 EDT    0.24   0.22    8  171   11  50.0 -99.9 1028.1 -9.9 -9.999 -99.9 -99.99 -9.99
2018/04/21 20:24 EDT    0.27   0.26    9  169   11  49.8 -99.9 1028.1 -9.9 -9.999 -99.9 -99.99 -9.99
2018/04/21 20:30 EDT    0.30   0.28    9  175   12  49.8 -99.9 1028.2 -9.9 -9.999 -99.9 -99.99 -9.99
2018/04/21 20:36 EDT    0.33   0.30   10  172   12  49.8 -99.9 1028.2 -9.9 -9.999 -99.9 -99.99 -9.99
2018/04/21 20:42 EDT    0.36   0.33    9  175   13  49.8 -99.9 1028.2 -9.9 -9.999 -99.9 -99.99 -9.99
2018/04/21 20:48 EDT    0.40   0.36    7  162   10  49.8 -99.9 1028.1 -9.9 -9.999 -99.9 -99.99 -9.99
2018/04/21 20:54 EDT    0.44   0.40    9  161   11  50.0 -99.9 1028.1 -9.9 -9.999 -99.9 -99.99 -9.99
2018/04/21 21:00 EDT    0.49   0.45    9  159   10  50.0 -99.9 1028.1 -9.9 -9.999 -99.9 -99.99 -9.99
2018/04/21 21:06 EDT    0.54   0.50    8  159   10  50.2 -99.9 1028.1 -9.9 -9.999 -99.9 -99.99 -9.99
2018/04/21 21:12 EDT    0.59   0.53    9  165   11  50.2 -99.9 1028.1 -9.9 -9.999 -99.9 -99.99 -9.99
2018/04/21 21:18 EDT    0.64   0.60    8  165   11  50.2 -99.9 1028.1 -9.9 -9.999 -99.9 -99.99 -9.99
2018/04/21 21:24 EDT    0.69   0.66    8  151   10  50.4 -99.9 1028.1 -9.9 -9.999 -99.9 -99.99 -9.99
2018/04/21 21:30 EDT    0.75   0.68    8  150   10  50.4 -99.9 1028.1 -9.9 -9.999 -99.9 -99.99 -9.99
2018/04/21 21:36 EDT    0.81   0.78    9  156   11  50.4 -99.9 1028.2 -9.9 -9.999 -99.9 -99.99 -9.99
2018/04/21 21:42 EDT    0.87   0.84    9  148   10  50.4 -99.9 1028.2 -9.9 -9.999 -99.9 -99.99 -9.99
2018/04/21 21:48 EDT    0.93   0.93    8  147   11  50.5 -99.9 1028.2 -9.9 -9.999 -99.9 -99.99 -9.99
2018/04/21 21:54 EDT    1.00   1.01   10  149   11  50.4 -99.9 1028.2 -9.9 -9.999 -99.9 -99.99 -9.99
2018/04/21 22:00 EDT    1.07   1.06   10  154   12  50.4 -99.9 1028.3 -9.9 -9.999 -99.9 -99.99 -9.99
2018/04/21 22:06 EDT    1.13   1.13   11  151   13  50.4 -99.9 1028.3 -9.9 -9.999 -99.9 -99.99 -9.99
2018/04/21 22:12 EDT    1.20   1.24   10  160   12  50.4 -99.9 1028.3 -9.9 -9.999 -99.9 -99.99 -9.99
2018/04/21 22:18 EDT    1.27   1.32   10  158   12  50.5 -99.9 1028.3 -9.9 -9.999 -99.9 -99.99 -9.99
2018/04/21 22:24 EDT    1.35   1.40   10  151   12  50.4 -99.9 1028.3 -9.9 -9.999 -99.9 -99.99 -9.99
2018/04/21 22:30 EDT    1.42   1.48   10  155   12  50.2 -99.9 1028.3 -9.9 -9.999 -99.9 -99.99 -9.99
2018/04/21 22:36 EDT    1.49   1.56   10  156   12  50.4 -99.9 1028.2 -9.9 -9.999 -99.9 -99.99 -9.99
2018/04/21 22:42 EDT    1.56   1.62    9  150   13  50.4 -99.9 1028.1 -9.9 -9.999 -99.9 -99.99 -9.99
2018/04/21 22:48 EDT    1.64   1.73   10  162   11  50.4 -99.9 1028.1 -9.9 -9.999 -99.9 -99.99 -9.99
2018/04/21 22:54 EDT    1.71   1.77    8  158   11  50.4 -99.9 1028.1 -9.9 -9.999 -99.9 -99.99 -9.99
2018/04/21 23:00 EDT    1.78   1.86   11  162   12  50.2 -99.9 1028.1 -9.9 -9.999 -99.9 -99.99 -9.99
2018/04/21 23:06 EDT    1.86   1.95   11  169   13  50.4 -99.9 1028.1 -9.9 -9.999 -99.9 -99.99 -9.99
2018/04/21 23:12 EDT    1.93   2.01   11  172   14  50.0 -99.9 1028.1 -9.9 -9.999 -99.9 -99.99 -9.99
2018/04/21 23:18 EDT    2.00   2.08   10  176   13  49.6 -99.9 1028.1 -9.9 -9.999 -99.9 -99.99 -9.99
2018/04/21 23:24 EDT    2.07   2.14   12  173   14  49.5 -99.9 1028.2 -9.9 -9.999 -99.9 -99.99 -9.99
2018/04/21 23:30 EDT    2.14   2.21    9  172   13  49.6 -99.9 1028.1 -9.9 -9.999 -99.9 -99.99 -9.99
2018/04/21 23:36 EDT    2.21   2.24    8  173   11  49.6 -99.9 1028.2 -9.9 -9.999 -99.9 -99.99 -9.99
2018/04/21 23:42 EDT    2.27   2.29   10  181   11  49.5 -99.9 1028.2 -9.9 -9.999 -99.9 -99.99 -9.99
2018/04/21 23:48 EDT    2.34   2.35   11  186   13  49.5 -99.9 1028.3 -9.9 -9.999 -99.9 -99.99 -9.99
2018/04/21 23:54 EDT    2.40   2.41   13  190   14  49.3 -99.9 1028.3 -9.9 -9.999 -99.9 -99.99 -9.99
2018/04/22 00:00 EDT    2.46   2.44   13  191   16  49.1 -99.9 1028.4 -9.9 -9.999 -99.9 -99.99 -9.99
2018/04/22 00:06 EDT    2.52   2.52   11  190   15  49.1 -99.9 1028.5 -9.9 -9.999 -99.9 -99.99 -9.99
2018/04/22 00:12 EDT    2.58   2.57   10  193   14  49.3 -99.9 1028.5 -9.9 -9.999 -99.9 -99.99 -9.99
2018/04/22 00:18 EDT    2.63   2.59   11  201   13  49.3 -99.9 1028.5 -9.9 -9.999 -99.9 -99.99 -9.99
2018/04/22 00:24 EDT    2.68   2.66   11  198   13  49.1 -99.9 1028.6 -9.9 -9.999 -99.9 -99.99 -9.99
2018/04/22 00:30 EDT    2.73   2.68   13  203   14  49.3 -99.9 1028.6 -9.9 -9.999 -99.9 -99.99 -9.99
2018/04/22 00:36 EDT    2.77   2.74   11  201   15  49.5 -99.9 1028.7 -9.9 -9.999 -99.9 -99.99 -9.99
2018/04/22 00:42 EDT    2.81   2.75   11  207   14  49.3 -99.9 1028.8 -9.9 -9.999 -99.9 -99.99 -9.99
2018/04/22 00:48 EDT    2.85   2.78   10  200   13  49.3 -99.9 1028.7 -9.9 -9.999 -99.9 -99.99 -9.99
2018/04/22 00:54 EDT    2.89   2.82   11  201   12  49.3 -99.9 1028.7 -9.9 -9.999 -99.9 -99.99 -9.99
2018/04/22 01:00 EDT    2.92   2.83   11  202   13  49.5 -99.9 1028.7 -9.9 -9.999 -99.9 -99.99 -9.99
2018/04/22 01:06 EDT    2.95   2.84   11  203   13  49.5 -99.9 1028.7 -9.9 -9.999 -99.9 -99.99 -9.99
2018/04/22 01:12 EDT    2.97   2.85   10  199   12  49.6 -99.9 1028.7 -9.9 -9.999 -99.9 -99.99 -9.99
2018/04/22 01:18 EDT    3.00   2.86   10  203   13  49.6 -99.9 1028.7 -9.9 -9.999 -99.9 -99.99 -9.99
2018/04/22 01:24 EDT    3.01   2.85   10  202   12  49.5 -99.9 1028.7 -9.9 -9.999 -99.9 -99.99 -9.99
2018/04/22 01:30 EDT    3.03   2.85   10  198   12  49.6 -99.9 1028.6 -9.9 -9.999 -99.9 -99.99 -9.99
2018/04/22 01:36 EDT    3.04   2.86    9  201   11  49.6 -99.9 1028.7 -9.9 -9.999 -99.9 -99.99 -9.99
2018/04/22 01:42 EDT    3.05   2.87    9  204   11  49.6 -99.9 1028.6 -9.9 -9.999 -99.9 -99.99 -9.99
2018/04/22 01:48 EDT    3.05   2.84    9  204   11  49.6 -99.9 1028.6 -9.9 -9.999 -99.9 -99.99 -9.99
2018/04/22 01:54 EDT    3.05   2.85   10  202   13  49.6 -99.9 1028.6 -9.9 -9.999 -99.9 -99.99 -9.99
2018/04/22 02:00 EDT    3.05   2.82   11  198   13  49.6 -99.9 1028.5 -9.9 -9.999 -99.9 -99.99 -9.99
2018/04/22 02:06 EDT    3.04   2.82   10  203   13  49.6 -99.9 1028.5 -9.9 -9.999 -99.9 -99.99 -9.99
2018/04/22 02:12 EDT    3.03   2.81   10  195   11  49.6 -99.9 1028.3 -9.9 -9.999 -99.9 -99.99 -9.99
2018/04/22 02:18 EDT    3.02   2.75    9  192   11  49.6 -99.9 1028.3 -9.9 -9.999 -99.9 -99.99 -9.99
2018/04/22 02:24 EDT    3.01   2.78    8  194   10  49.6 -99.9 1028.2 -9.9 -9.999 -99.9 -99.99 -9.99
2018/04/22 02:30 EDT    2.99   2.76    9  189   10  49.6 -99.9 1028.2 -9.9 -9.999 -99.9 -99.99 -9.99
2018/04/22 02:36 EDT    2.97   2.72    7  191   10  49.8 -99.9 1028.2 -9.9 -9.999 -99.9 -99.99 -9.99
2018/04/22 02:42 EDT    2.94   2.67    8  191    9  49.8 -99.9 1028.1 -9.9 -9.999 -99.9 -99.99 -9.99
2018/04/22 02:48 EDT    2.92   2.68    7  185    9  49.8 -99.9 1028.1 -9.9 -9.999 -99.9 -99.99 -9.99
2018/04/22 02:54 EDT    2.89   2.63    6  183    7  50.0 -99.9 1028.2 -9.9 -9.999 -99.9 -99.99 -9.99
2018/04/22 03:00 EDT    2.86   2.59    6  180    7  50.0 -99.9 1028.2 -9.9 -9.999 -99.9 -99.99 -9.99
2018/04/22 03:06 EDT    2.83   2.59    5  171    7  50.0 -99.9 1028.1 -9.9 -9.999 -99.9 -99.99 -9.99
2018/04/22 03:12 EDT    2.79   2.58    5  158    6  50.0 -99.9 1028.1 -9.9 -9.999 -99.9 -99.99 -9.99
2018/04/22 03:18 EDT    2.75   2.53    4  157    6  50.0 -99.9 1028.1 -9.9 -9.999 -99.9 -99.99 -9.99
2018/04/22 03:24 EDT    2.71   2.47    5  157    6  50.0 -99.9 1028.1 -9.9 -9.999 -99.9 -99.99 -9.99
2018/04/22 03:30 EDT    2.67   2.44    4  146    5  50.0 -99.9 1028.2 -9.9 -9.999 -99.9 -99.99 -9.99
2018/04/22 03:36 EDT    2.63   2.40    4  148    5  50.0 -99.9 1028.1 -9.9 -9.999 -99.9 -99.99 -9.99
2018/04/22 03:42 EDT    2.58   2.35    4  148    5  50.2 -99.9 1028.2 -9.9 -9.999 -99.9 -99.99 -9.99
2018/04/22 03:48 EDT    2.53   2.29    4  150    5  50.2 -99.9 1028.2 -9.9 -9.999 -99.9 -99.99 -9.99
2018/04/22 03:54 EDT    2.48   2.26    4  149    4  50.4 -99.9 1028.2 -9.9 -9.999 -99.9 -99.99 -9.99
2018/04/22 04:00 EDT    2.43   2.19    4  162    4  50.4 -99.9 1028.1 -9.9 -9.999 -99.9 -99.99 -9.99
2018/04/22 04:06 EDT    2.37   2.15 -999 -999 -999 -99.9 -99.9 -999.9 -9.9 -9.999 -99.9 -99.99 -9.99
2018/04/22 04:12 EDT    2.32   2.07    5  193    6  50.5 -99.9 1028.2 -9.9 -9.999 -99.9 -99.99 -9.99
2018/04/22 04:18 EDT    2.26   2.00    6  200    7  50.5 -99.9 1028.1 -9.9 -9.999 -99.9 -99.99 -9.99
2018/04/22 04:24 EDT    2.20   1.94    7  207    8  50.5 -99.9 1028.0 -9.9 -9.999 -99.9 -99.99 -9.99
2018/04/22 04:30 EDT    2.14 -99.99 -999 -999 -999 -99.9 -99.9 -999.9 -9.9 -9.999 -99.9 -99.99 -9.99
2018/04/22 04:36 EDT    2.07 -99.99 -999 -999 -999 -99.9 -99.9 -999.9 -9.9 -9.999 -99.9 -99.99 -9.99
2018/04/22 04:42 EDT    2.01 -99.99 -999 -999 -999 -99.9 -99.9 -999.9 -9.9 -9.999 -99.9 -99.99 -9.99

Revised: 10/15/2013
NOAA / National Ocean Service
Web site owner: Center for Operational Oceanographic Products and Services